<?xml version="1.0" encoding="UTF-8" standalone="no" ?>
<gpx xmlns="http://www.topografix.com/GPX/1/1" xmlns:xsi="http://www.w3.org/2001/XMLSchema-instance" xsi:schemaLocation="http://www.topografix.com/GPX/1/1 http://www.topografix.com/GPX/1/1/gpx.xsd" version="1.1" creator="VisuGPX - https://www.visugpx.com">
  <metadata>
    <name>Saint-Cézaire-sur-Siagne</name>
    <desc><![CDATA[[b][i]http://art.photographies.free.fr[/i][/b]]]></desc>
  </metadata>
  <trk>
    <name><![CDATA[27 sept. 2015 11:10:49]]></name>
    <cmt><![CDATA[27 sept. 2015 11:10:49]]></cmt>
    <trkseg>
      <trkpt lat="43.64977" lon="6.79434">
        <ele>484</ele>
        <time>2015-09-27T09:10:50Z</time>
      </trkpt>
      <trkpt lat="43.64975" lon="6.79432">
        <ele>485</ele>
        <time>2015-09-27T09:10:58Z</time>
      </trkpt>
      <trkpt lat="43.64975" lon="6.79419">
        <ele>483</ele>
        <time>2015-09-27T09:13:20Z</time>
      </trkpt>
      <trkpt lat="43.64971" lon="6.79413">
        <ele>482</ele>
        <time>2015-09-27T09:13:25Z</time>
      </trkpt>
      <trkpt lat="43.64969" lon="6.79411">
        <ele>481</ele>
        <time>2015-09-27T09:13:31Z</time>
      </trkpt>
      <trkpt lat="43.64966" lon="6.79395">
        <ele>481</ele>
        <time>2015-09-27T09:13:40Z</time>
      </trkpt>
      <trkpt lat="43.64968" lon="6.79387">
        <ele>481</ele>
        <time>2015-09-27T09:13:46Z</time>
      </trkpt>
      <trkpt lat="43.64964" lon="6.79369">
        <ele>478</ele>
        <time>2015-09-27T09:13:58Z</time>
      </trkpt>
      <trkpt lat="43.64962" lon="6.79357">
        <ele>478</ele>
        <time>2015-09-27T09:14:06Z</time>
      </trkpt>
      <trkpt lat="43.64972" lon="6.79351">
        <ele>482</ele>
        <time>2015-09-27T09:14:16Z</time>
      </trkpt>
      <trkpt lat="43.64973" lon="6.79339">
        <ele>483</ele>
        <time>2015-09-27T09:14:27Z</time>
      </trkpt>
      <trkpt lat="43.64974" lon="6.79326">
        <ele>483</ele>
        <time>2015-09-27T09:14:37Z</time>
      </trkpt>
      <trkpt lat="43.64978" lon="6.79314">
        <ele>485</ele>
        <time>2015-09-27T09:14:50Z</time>
      </trkpt>
      <trkpt lat="43.64983" lon="6.79308">
        <ele>484</ele>
        <time>2015-09-27T09:14:56Z</time>
      </trkpt>
      <trkpt lat="43.64986" lon="6.79303">
        <ele>484</ele>
        <time>2015-09-27T09:15:01Z</time>
      </trkpt>
      <trkpt lat="43.64989" lon="6.79285">
        <ele>487</ele>
        <time>2015-09-27T09:15:17Z</time>
      </trkpt>
      <trkpt lat="43.64982" lon="6.79272">
        <ele>485</ele>
        <time>2015-09-27T09:15:26Z</time>
      </trkpt>
      <trkpt lat="43.64973" lon="6.79279">
        <ele>482</ele>
        <time>2015-09-27T09:15:35Z</time>
      </trkpt>
      <trkpt lat="43.64965" lon="6.79293">
        <ele>484</ele>
        <time>2015-09-27T09:15:49Z</time>
      </trkpt>
      <trkpt lat="43.64952" lon="6.79314">
        <ele>481</ele>
        <time>2015-09-27T09:16:07Z</time>
      </trkpt>
      <trkpt lat="43.64942" lon="6.79314">
        <ele>488</ele>
        <time>2015-09-27T09:16:33Z</time>
      </trkpt>
      <trkpt lat="43.64935" lon="6.79313">
        <ele>487</ele>
        <time>2015-09-27T09:16:36Z</time>
      </trkpt>
      <trkpt lat="43.64928" lon="6.79315">
        <ele>486</ele>
        <time>2015-09-27T09:16:37Z</time>
      </trkpt>
      <trkpt lat="43.64913" lon="6.79312">
        <ele>485</ele>
        <time>2015-09-27T09:16:48Z</time>
      </trkpt>
      <trkpt lat="43.64904" lon="6.79318">
        <ele>484</ele>
        <time>2015-09-27T09:16:59Z</time>
      </trkpt>
      <trkpt lat="43.64908" lon="6.7933">
        <ele>485</ele>
        <time>2015-09-27T09:17:34Z</time>
      </trkpt>
      <trkpt lat="43.64902" lon="6.79342">
        <ele>483</ele>
        <time>2015-09-27T09:17:48Z</time>
      </trkpt>
      <trkpt lat="43.64896" lon="6.79351">
        <ele>483</ele>
        <time>2015-09-27T09:17:56Z</time>
      </trkpt>
      <trkpt lat="43.64887" lon="6.79348">
        <ele>483</ele>
        <time>2015-09-27T09:18:13Z</time>
      </trkpt>
      <trkpt lat="43.64877" lon="6.7935">
        <ele>482</ele>
        <time>2015-09-27T09:18:28Z</time>
      </trkpt>
      <trkpt lat="43.64871" lon="6.79354">
        <ele>482</ele>
        <time>2015-09-27T09:18:37Z</time>
      </trkpt>
      <trkpt lat="43.64866" lon="6.79361">
        <ele>481</ele>
        <time>2015-09-27T09:19:00Z</time>
      </trkpt>
      <trkpt lat="43.64859" lon="6.79365">
        <ele>481</ele>
        <time>2015-09-27T09:19:13Z</time>
      </trkpt>
      <trkpt lat="43.64853" lon="6.79375">
        <ele>477</ele>
        <time>2015-09-27T09:19:25Z</time>
      </trkpt>
      <trkpt lat="43.64853" lon="6.79377">
        <ele>483</ele>
        <time>2015-09-27T09:19:57Z</time>
      </trkpt>
      <trkpt lat="43.64862" lon="6.79371">
        <ele>485</ele>
        <time>2015-09-27T09:20:05Z</time>
      </trkpt>
      <trkpt lat="43.64869" lon="6.79369">
        <ele>485</ele>
        <time>2015-09-27T09:20:10Z</time>
      </trkpt>
      <trkpt lat="43.64873" lon="6.79366">
        <ele>486</ele>
        <time>2015-09-27T09:20:13Z</time>
      </trkpt>
      <trkpt lat="43.64878" lon="6.7936">
        <ele>486</ele>
        <time>2015-09-27T09:20:17Z</time>
      </trkpt>
      <trkpt lat="43.6488" lon="6.79353">
        <ele>486</ele>
        <time>2015-09-27T09:20:23Z</time>
      </trkpt>
      <trkpt lat="43.64885" lon="6.79349">
        <ele>485</ele>
        <time>2015-09-27T09:20:39Z</time>
      </trkpt>
      <trkpt lat="43.64874" lon="6.79338">
        <ele>480</ele>
        <time>2015-09-27T09:21:14Z</time>
      </trkpt>
      <trkpt lat="43.64868" lon="6.79327">
        <ele>478</ele>
        <time>2015-09-27T09:21:36Z</time>
      </trkpt>
      <trkpt lat="43.64858" lon="6.79317">
        <ele>478</ele>
        <time>2015-09-27T09:22:38Z</time>
      </trkpt>
      <trkpt lat="43.64853" lon="6.79317">
        <ele>471</ele>
        <time>2015-09-27T09:23:34Z</time>
      </trkpt>
      <trkpt lat="43.64827" lon="6.79327">
        <ele>462</ele>
        <time>2015-09-27T09:24:11Z</time>
      </trkpt>
      <trkpt lat="43.64817" lon="6.79321">
        <ele>456</ele>
        <time>2015-09-27T09:24:47Z</time>
      </trkpt>
      <trkpt lat="43.64801" lon="6.79322">
        <ele>454</ele>
        <time>2015-09-27T09:25:17Z</time>
      </trkpt>
      <trkpt lat="43.64792" lon="6.79317">
        <ele>449</ele>
        <time>2015-09-27T09:25:32Z</time>
      </trkpt>
      <trkpt lat="43.64788" lon="6.79312">
        <ele>449</ele>
        <time>2015-09-27T09:25:46Z</time>
      </trkpt>
      <trkpt lat="43.64795" lon="6.79303">
        <ele>449</ele>
        <time>2015-09-27T09:25:58Z</time>
      </trkpt>
      <trkpt lat="43.64791" lon="6.79294">
        <ele>443</ele>
        <time>2015-09-27T09:26:34Z</time>
      </trkpt>
      <trkpt lat="43.64799" lon="6.79286">
        <ele>441</ele>
        <time>2015-09-27T09:26:57Z</time>
      </trkpt>
      <trkpt lat="43.64806" lon="6.79279">
        <ele>440</ele>
        <time>2015-09-27T09:27:10Z</time>
      </trkpt>
      <trkpt lat="43.64802" lon="6.7927">
        <ele>432</ele>
        <time>2015-09-27T09:27:41Z</time>
      </trkpt>
      <trkpt lat="43.64793" lon="6.7927">
        <ele>431</ele>
        <time>2015-09-27T09:27:49Z</time>
      </trkpt>
      <trkpt lat="43.64771" lon="6.79266">
        <ele>426</ele>
        <time>2015-09-27T09:28:21Z</time>
      </trkpt>
      <trkpt lat="43.64762" lon="6.79263">
        <ele>423</ele>
        <time>2015-09-27T09:29:13Z</time>
      </trkpt>
      <trkpt lat="43.64737" lon="6.79239">
        <ele>412</ele>
        <time>2015-09-27T09:30:44Z</time>
      </trkpt>
      <trkpt lat="43.64728" lon="6.79237">
        <ele>413</ele>
        <time>2015-09-27T09:30:50Z</time>
      </trkpt>
      <trkpt lat="43.64703" lon="6.79229">
        <ele>408</ele>
        <time>2015-09-27T09:31:32Z</time>
      </trkpt>
      <trkpt lat="43.64693" lon="6.79231">
        <ele>405</ele>
        <time>2015-09-27T09:31:52Z</time>
      </trkpt>
      <trkpt lat="43.64685" lon="6.79222">
        <ele>405</ele>
        <time>2015-09-27T09:32:07Z</time>
      </trkpt>
      <trkpt lat="43.64676" lon="6.79219">
        <ele>404</ele>
        <time>2015-09-27T09:32:17Z</time>
      </trkpt>
      <trkpt lat="43.64667" lon="6.79217">
        <ele>408</ele>
        <time>2015-09-27T09:32:37Z</time>
      </trkpt>
      <trkpt lat="43.64651" lon="6.79225">
        <ele>401</ele>
        <time>2015-09-27T09:33:10Z</time>
      </trkpt>
      <trkpt lat="43.64643" lon="6.79222">
        <ele>400</ele>
        <time>2015-09-27T09:33:39Z</time>
      </trkpt>
      <trkpt lat="43.64626" lon="6.79233">
        <ele>395</ele>
        <time>2015-09-27T09:34:23Z</time>
      </trkpt>
      <trkpt lat="43.64611" lon="6.79238">
        <ele>388</ele>
        <time>2015-09-27T09:35:08Z</time>
      </trkpt>
      <trkpt lat="43.64603" lon="6.79243">
        <ele>387</ele>
        <time>2015-09-27T09:35:20Z</time>
      </trkpt>
      <trkpt lat="43.64593" lon="6.79242">
        <ele>384</ele>
        <time>2015-09-27T09:35:33Z</time>
      </trkpt>
      <trkpt lat="43.64583" lon="6.79248">
        <ele>384</ele>
        <time>2015-09-27T09:35:50Z</time>
      </trkpt>
      <trkpt lat="43.64569" lon="6.79265">
        <ele>381</ele>
        <time>2015-09-27T09:36:15Z</time>
      </trkpt>
      <trkpt lat="43.6456" lon="6.79265">
        <ele>378</ele>
        <time>2015-09-27T09:36:47Z</time>
      </trkpt>
      <trkpt lat="43.64543" lon="6.79274">
        <ele>373</ele>
        <time>2015-09-27T09:37:22Z</time>
      </trkpt>
      <trkpt lat="43.64533" lon="6.79282">
        <ele>370</ele>
        <time>2015-09-27T09:37:52Z</time>
      </trkpt>
      <trkpt lat="43.64521" lon="6.79317">
        <ele>361</ele>
        <time>2015-09-27T09:38:31Z</time>
      </trkpt>
      <trkpt lat="43.64509" lon="6.79343">
        <ele>354</ele>
        <time>2015-09-27T09:39:08Z</time>
      </trkpt>
      <trkpt lat="43.64501" lon="6.79367">
        <ele>350</ele>
        <time>2015-09-27T09:39:30Z</time>
      </trkpt>
      <trkpt lat="43.64495" lon="6.79378">
        <ele>350</ele>
        <time>2015-09-27T09:39:38Z</time>
      </trkpt>
      <trkpt lat="43.64472" lon="6.79404">
        <ele>344</ele>
        <time>2015-09-27T09:40:12Z</time>
      </trkpt>
      <trkpt lat="43.64464" lon="6.79411">
        <ele>343</ele>
        <time>2015-09-27T09:40:24Z</time>
      </trkpt>
      <trkpt lat="43.64455" lon="6.79415">
        <ele>343</ele>
        <time>2015-09-27T09:40:35Z</time>
      </trkpt>
      <trkpt lat="43.64446" lon="6.79412">
        <ele>344</ele>
        <time>2015-09-27T09:40:44Z</time>
      </trkpt>
      <trkpt lat="43.64437" lon="6.7941">
        <ele>343</ele>
        <time>2015-09-27T09:40:54Z</time>
      </trkpt>
      <trkpt lat="43.64409" lon="6.79411">
        <ele>346</ele>
        <time>2015-09-27T09:41:26Z</time>
      </trkpt>
      <trkpt lat="43.64403" lon="6.79413">
        <ele>346</ele>
        <time>2015-09-27T09:41:40Z</time>
      </trkpt>
      <trkpt lat="43.64386" lon="6.79417">
        <ele>340</ele>
        <time>2015-09-27T09:42:23Z</time>
      </trkpt>
      <trkpt lat="43.64379" lon="6.79423">
        <ele>339</ele>
        <time>2015-09-27T09:42:35Z</time>
      </trkpt>
      <trkpt lat="43.64359" lon="6.7945">
        <ele>334</ele>
        <time>2015-09-27T09:43:10Z</time>
      </trkpt>
      <trkpt lat="43.64349" lon="6.79455">
        <ele>333</ele>
        <time>2015-09-27T09:43:27Z</time>
      </trkpt>
      <trkpt lat="43.64342" lon="6.79463">
        <ele>332</ele>
        <time>2015-09-27T09:43:36Z</time>
      </trkpt>
      <trkpt lat="43.64336" lon="6.79474">
        <ele>328</ele>
        <time>2015-09-27T09:43:51Z</time>
      </trkpt>
      <trkpt lat="43.64335" lon="6.79482">
        <ele>321</ele>
        <time>2015-09-27T09:44:28Z</time>
      </trkpt>
      <trkpt lat="43.64323" lon="6.79508">
        <ele>322</ele>
        <time>2015-09-27T09:45:02Z</time>
      </trkpt>
      <trkpt lat="43.64322" lon="6.7952">
        <ele>320</ele>
        <time>2015-09-27T09:45:14Z</time>
      </trkpt>
      <trkpt lat="43.64319" lon="6.79532">
        <ele>321</ele>
        <time>2015-09-27T09:45:26Z</time>
      </trkpt>
      <trkpt lat="43.64312" lon="6.79542">
        <ele>320</ele>
        <time>2015-09-27T09:45:41Z</time>
      </trkpt>
      <trkpt lat="43.64302" lon="6.79558">
        <ele>317</ele>
        <time>2015-09-27T09:46:04Z</time>
      </trkpt>
      <trkpt lat="43.64292" lon="6.7956">
        <ele>316</ele>
        <time>2015-09-27T09:46:12Z</time>
      </trkpt>
      <trkpt lat="43.64283" lon="6.79559">
        <ele>317</ele>
        <time>2015-09-27T09:46:22Z</time>
      </trkpt>
      <trkpt lat="43.64274" lon="6.7956">
        <ele>316</ele>
        <time>2015-09-27T09:46:33Z</time>
      </trkpt>
      <trkpt lat="43.64264" lon="6.79565">
        <ele>317</ele>
        <time>2015-09-27T09:46:42Z</time>
      </trkpt>
      <trkpt lat="43.64244" lon="6.79566">
        <ele>320</ele>
        <time>2015-09-27T09:46:57Z</time>
      </trkpt>
      <trkpt lat="43.64239" lon="6.79577">
        <ele>321</ele>
        <time>2015-09-27T09:47:09Z</time>
      </trkpt>
      <trkpt lat="43.64234" lon="6.79587">
        <ele>319</ele>
        <time>2015-09-27T09:47:21Z</time>
      </trkpt>
      <trkpt lat="43.6423" lon="6.79598">
        <ele>318</ele>
        <time>2015-09-27T09:47:31Z</time>
      </trkpt>
      <trkpt lat="43.64226" lon="6.79609">
        <ele>318</ele>
        <time>2015-09-27T09:47:43Z</time>
      </trkpt>
      <trkpt lat="43.64218" lon="6.79616">
        <ele>317</ele>
        <time>2015-09-27T09:47:57Z</time>
      </trkpt>
      <trkpt lat="43.64211" lon="6.79625">
        <ele>316</ele>
        <time>2015-09-27T09:48:09Z</time>
      </trkpt>
      <trkpt lat="43.64191" lon="6.79632">
        <ele>309</ele>
        <time>2015-09-27T09:48:41Z</time>
      </trkpt>
      <trkpt lat="43.6418" lon="6.79632">
        <ele>309</ele>
        <time>2015-09-27T09:48:48Z</time>
      </trkpt>
      <trkpt lat="43.64171" lon="6.79633">
        <ele>310</ele>
        <time>2015-09-27T09:48:57Z</time>
      </trkpt>
      <trkpt lat="43.6416" lon="6.79625">
        <ele>312</ele>
        <time>2015-09-27T09:49:26Z</time>
      </trkpt>
      <trkpt lat="43.64141" lon="6.79629">
        <ele>314</ele>
        <time>2015-09-27T09:49:46Z</time>
      </trkpt>
      <trkpt lat="43.64121" lon="6.79627">
        <ele>309</ele>
        <time>2015-09-27T09:50:22Z</time>
      </trkpt>
      <trkpt lat="43.64112" lon="6.79631">
        <ele>301</ele>
        <time>2015-09-27T09:50:51Z</time>
      </trkpt>
      <trkpt lat="43.64102" lon="6.79629">
        <ele>301</ele>
        <time>2015-09-27T09:51:09Z</time>
      </trkpt>
      <trkpt lat="43.64093" lon="6.79629">
        <ele>301</ele>
        <time>2015-09-27T09:51:23Z</time>
      </trkpt>
      <trkpt lat="43.64086" lon="6.79629">
        <ele>296</ele>
        <time>2015-09-27T09:51:54Z</time>
      </trkpt>
      <trkpt lat="43.6406" lon="6.79646">
        <ele>297</ele>
        <time>2015-09-27T09:52:30Z</time>
      </trkpt>
      <trkpt lat="43.64048" lon="6.79653">
        <ele>293</ele>
        <time>2015-09-27T09:52:50Z</time>
      </trkpt>
      <trkpt lat="43.64029" lon="6.79655">
        <ele>290</ele>
        <time>2015-09-27T09:53:11Z</time>
      </trkpt>
      <trkpt lat="43.64029" lon="6.79648">
        <ele>286</ele>
        <time>2015-09-27T09:54:52Z</time>
      </trkpt>
      <trkpt lat="43.64039" lon="6.79627">
        <ele>280</ele>
        <time>2015-09-27T09:55:29Z</time>
      </trkpt>
      <trkpt lat="43.64044" lon="6.79628">
        <ele>278</ele>
        <time>2015-09-27T09:55:47Z</time>
      </trkpt>
      <trkpt lat="43.64051" lon="6.79619">
        <ele>274</ele>
        <time>2015-09-27T09:56:00Z</time>
      </trkpt>
      <trkpt lat="43.64058" lon="6.7961">
        <ele>274</ele>
        <time>2015-09-27T09:56:14Z</time>
      </trkpt>
      <trkpt lat="43.6406" lon="6.79601">
        <ele>273</ele>
        <time>2015-09-27T09:56:29Z</time>
      </trkpt>
      <trkpt lat="43.64064" lon="6.79595">
        <ele>273</ele>
        <time>2015-09-27T09:56:42Z</time>
      </trkpt>
      <trkpt lat="43.64061" lon="6.79585">
        <ele>273</ele>
        <time>2015-09-27T09:57:18Z</time>
      </trkpt>
      <trkpt lat="43.64064" lon="6.7958">
        <ele>272</ele>
        <time>2015-09-27T09:57:30Z</time>
      </trkpt>
      <trkpt lat="43.64071" lon="6.79564">
        <ele>273</ele>
        <time>2015-09-27T09:58:01Z</time>
      </trkpt>
      <trkpt lat="43.64082" lon="6.79559">
        <ele>273</ele>
        <time>2015-09-27T09:58:22Z</time>
      </trkpt>
      <trkpt lat="43.64087" lon="6.79562">
        <ele>263</ele>
        <time>2015-09-27T09:59:05Z</time>
      </trkpt>
      <trkpt lat="43.64093" lon="6.79553">
        <ele>261</ele>
        <time>2015-09-27T09:59:24Z</time>
      </trkpt>
      <trkpt lat="43.64107" lon="6.79535">
        <ele>262</ele>
        <time>2015-09-27T09:59:46Z</time>
      </trkpt>
      <trkpt lat="43.64105" lon="6.79534">
        <ele>258</ele>
        <time>2015-09-27T10:00:13Z</time>
      </trkpt>
      <trkpt lat="43.64095" lon="6.79538">
        <ele>256</ele>
        <time>2015-09-27T10:00:25Z</time>
      </trkpt>
      <trkpt lat="43.6409" lon="6.79534">
        <ele>255</ele>
        <time>2015-09-27T10:00:39Z</time>
      </trkpt>
      <trkpt lat="43.64097" lon="6.79526">
        <ele>254</ele>
        <time>2015-09-27T10:00:51Z</time>
      </trkpt>
      <trkpt lat="43.64103" lon="6.79516">
        <ele>253</ele>
        <time>2015-09-27T10:01:05Z</time>
      </trkpt>
      <trkpt lat="43.64118" lon="6.79499">
        <ele>245</ele>
        <time>2015-09-27T10:01:29Z</time>
      </trkpt>
      <trkpt lat="43.64126" lon="6.79497">
        <ele>243</ele>
        <time>2015-09-27T10:01:48Z</time>
      </trkpt>
      <trkpt lat="43.64131" lon="6.79498">
        <ele>241</ele>
        <time>2015-09-27T10:02:00Z</time>
      </trkpt>
      <trkpt lat="43.64135" lon="6.79494">
        <ele>242</ele>
        <time>2015-09-27T10:02:18Z</time>
      </trkpt>
      <trkpt lat="43.64144" lon="6.79488">
        <ele>239</ele>
        <time>2015-09-27T10:02:34Z</time>
      </trkpt>
      <trkpt lat="43.6414" lon="6.79481">
        <ele>237</ele>
        <time>2015-09-27T10:03:18Z</time>
      </trkpt>
      <trkpt lat="43.64146" lon="6.79474">
        <ele>236</ele>
        <time>2015-09-27T10:08:12Z</time>
      </trkpt>
      <trkpt lat="43.64152" lon="6.79472">
        <ele>233</ele>
        <time>2015-09-27T10:08:35Z</time>
      </trkpt>
      <trkpt lat="43.64159" lon="6.79454">
        <ele>236</ele>
        <time>2015-09-27T10:09:02Z</time>
      </trkpt>
      <trkpt lat="43.64161" lon="6.79443">
        <ele>229</ele>
        <time>2015-09-27T10:09:26Z</time>
      </trkpt>
      <trkpt lat="43.64157" lon="6.79404">
        <ele>225</ele>
        <time>2015-09-27T10:10:03Z</time>
      </trkpt>
      <trkpt lat="43.64164" lon="6.79397">
        <ele>226</ele>
        <time>2015-09-27T10:10:13Z</time>
      </trkpt>
      <trkpt lat="43.64177" lon="6.79389">
        <ele>219</ele>
        <time>2015-09-27T10:10:42Z</time>
      </trkpt>
      <trkpt lat="43.64168" lon="6.79384">
        <ele>218</ele>
        <time>2015-09-27T10:10:56Z</time>
      </trkpt>
      <trkpt lat="43.6416" lon="6.79379">
        <ele>219</ele>
        <time>2015-09-27T10:11:12Z</time>
      </trkpt>
      <trkpt lat="43.64162" lon="6.79366">
        <ele>216</ele>
        <time>2015-09-27T10:11:26Z</time>
      </trkpt>
      <trkpt lat="43.64171" lon="6.79368">
        <ele>214</ele>
        <time>2015-09-27T10:11:35Z</time>
      </trkpt>
      <trkpt lat="43.6418" lon="6.79372">
        <ele>214</ele>
        <time>2015-09-27T10:11:48Z</time>
      </trkpt>
      <trkpt lat="43.64186" lon="6.7937">
        <ele>216</ele>
        <time>2015-09-27T10:12:01Z</time>
      </trkpt>
      <trkpt lat="43.64181" lon="6.79358">
        <ele>213</ele>
        <time>2015-09-27T10:12:21Z</time>
      </trkpt>
      <trkpt lat="43.64191" lon="6.79359">
        <ele>211</ele>
        <time>2015-09-27T10:12:39Z</time>
      </trkpt>
      <trkpt lat="43.64192" lon="6.79352">
        <ele>210</ele>
        <time>2015-09-27T10:13:38Z</time>
      </trkpt>
      <trkpt lat="43.64201" lon="6.79349">
        <ele>209</ele>
        <time>2015-09-27T10:13:47Z</time>
      </trkpt>
      <trkpt lat="43.64209" lon="6.79344">
        <ele>207</ele>
        <time>2015-09-27T10:14:07Z</time>
      </trkpt>
      <trkpt lat="43.64203" lon="6.79333">
        <ele>204</ele>
        <time>2015-09-27T10:14:25Z</time>
      </trkpt>
      <trkpt lat="43.64199" lon="6.79317">
        <ele>198</ele>
        <time>2015-09-27T10:15:04Z</time>
      </trkpt>
      <trkpt lat="43.64204" lon="6.79313">
        <ele>194</ele>
        <time>2015-09-27T10:15:18Z</time>
      </trkpt>
      <trkpt lat="43.64208" lon="6.79301">
        <ele>190</ele>
        <time>2015-09-27T10:15:33Z</time>
      </trkpt>
      <trkpt lat="43.64235" lon="6.79264">
        <ele>179</ele>
        <time>2015-09-27T10:16:14Z</time>
      </trkpt>
      <trkpt lat="43.64237" lon="6.79258">
        <ele>178</ele>
        <time>2015-09-27T10:16:26Z</time>
      </trkpt>
      <trkpt lat="43.64244" lon="6.79244">
        <ele>179</ele>
        <time>2015-09-27T10:16:41Z</time>
      </trkpt>
      <trkpt lat="43.6425" lon="6.79233">
        <ele>179</ele>
        <time>2015-09-27T10:16:50Z</time>
      </trkpt>
      <trkpt lat="43.64253" lon="6.79221">
        <ele>179</ele>
        <time>2015-09-27T10:17:01Z</time>
      </trkpt>
      <trkpt lat="43.64252" lon="6.79209">
        <ele>182</ele>
        <time>2015-09-27T10:17:30Z</time>
      </trkpt>
      <trkpt lat="43.64261" lon="6.79198">
        <ele>182</ele>
        <time>2015-09-27T10:17:55Z</time>
      </trkpt>
      <trkpt lat="43.6428" lon="6.79183">
        <ele>191</ele>
        <time>2015-09-27T10:18:31Z</time>
      </trkpt>
      <trkpt lat="43.64285" lon="6.79186">
        <ele>185</ele>
        <time>2015-09-27T10:19:19Z</time>
      </trkpt>
      <trkpt lat="43.64288" lon="6.79174">
        <ele>189</ele>
        <time>2015-09-27T10:19:46Z</time>
      </trkpt>
      <trkpt lat="43.64294" lon="6.79171">
        <ele>178</ele>
        <time>2015-09-27T10:22:47Z</time>
      </trkpt>
      <trkpt lat="43.64303" lon="6.79163">
        <ele>177</ele>
        <time>2015-09-27T10:23:12Z</time>
      </trkpt>
      <trkpt lat="43.64306" lon="6.79152">
        <ele>177</ele>
        <time>2015-09-27T10:23:23Z</time>
      </trkpt>
      <trkpt lat="43.6431" lon="6.79141">
        <ele>167</ele>
        <time>2015-09-27T10:23:49Z</time>
      </trkpt>
      <trkpt lat="43.64316" lon="6.79124">
        <ele>169</ele>
        <time>2015-09-27T10:24:16Z</time>
      </trkpt>
      <trkpt lat="43.64322" lon="6.79111">
        <ele>175</ele>
        <time>2015-09-27T10:24:32Z</time>
      </trkpt>
      <trkpt lat="43.64324" lon="6.79096">
        <ele>170</ele>
        <time>2015-09-27T10:24:57Z</time>
      </trkpt>
      <trkpt lat="43.6433" lon="6.79086">
        <ele>172</ele>
        <time>2015-09-27T10:25:07Z</time>
      </trkpt>
      <trkpt lat="43.6433" lon="6.79079">
        <ele>175</ele>
        <time>2015-09-27T10:25:25Z</time>
      </trkpt>
      <trkpt lat="43.64335" lon="6.79074">
        <ele>169</ele>
        <time>2015-09-27T10:25:55Z</time>
      </trkpt>
      <trkpt lat="43.64333" lon="6.79074">
        <ele>165</ele>
        <time>2015-09-27T10:26:41Z</time>
      </trkpt>
      <trkpt lat="43.64325" lon="6.79078">
        <ele>164</ele>
        <time>2015-09-27T10:27:11Z</time>
      </trkpt>
      <trkpt lat="43.64322" lon="6.79076">
        <ele>186</ele>
        <time>2015-09-27T10:28:12Z</time>
      </trkpt>
      <trkpt lat="43.64332" lon="6.79068">
        <ele>185</ele>
        <time>2015-09-27T10:28:16Z</time>
      </trkpt>
      <trkpt lat="43.64337" lon="6.79066">
        <ele>180</ele>
        <time>2015-09-27T10:29:16Z</time>
      </trkpt>
      <trkpt lat="43.64342" lon="6.79066">
        <ele>173</ele>
        <time>2015-09-27T10:30:00Z</time>
      </trkpt>
      <trkpt lat="43.64349" lon="6.79062">
        <ele>170</ele>
        <time>2015-09-27T10:34:24Z</time>
      </trkpt>
      <trkpt lat="43.64352" lon="6.79068">
        <ele>171</ele>
        <time>2015-09-27T10:34:52Z</time>
      </trkpt>
      <trkpt lat="43.6434" lon="6.7907">
        <ele>173</ele>
        <time>2015-09-27T10:35:29Z</time>
      </trkpt>
      <trkpt lat="43.64341" lon="6.79064">
        <ele>173</ele>
        <time>2015-09-27T10:36:53Z</time>
      </trkpt>
      <trkpt lat="43.64341" lon="6.79051">
        <ele>169</ele>
        <time>2015-09-27T10:36:59Z</time>
      </trkpt>
      <trkpt lat="43.64337" lon="6.7904">
        <ele>168</ele>
        <time>2015-09-27T10:37:05Z</time>
      </trkpt>
      <trkpt lat="43.64334" lon="6.79033">
        <ele>168</ele>
        <time>2015-09-27T10:37:10Z</time>
      </trkpt>
      <trkpt lat="43.64331" lon="6.79032">
        <ele>168</ele>
        <time>2015-09-27T10:37:22Z</time>
      </trkpt>
      <trkpt lat="43.64333" lon="6.79026">
        <ele>169</ele>
        <time>2015-09-27T10:37:29Z</time>
      </trkpt>
      <trkpt lat="43.64338" lon="6.79018">
        <ele>173</ele>
        <time>2015-09-27T10:37:37Z</time>
      </trkpt>
      <trkpt lat="43.6434" lon="6.79002">
        <ele>169</ele>
        <time>2015-09-27T10:37:52Z</time>
      </trkpt>
      <trkpt lat="43.64344" lon="6.78998">
        <ele>169</ele>
        <time>2015-09-27T10:37:58Z</time>
      </trkpt>
      <trkpt lat="43.64343" lon="6.78992">
        <ele>170</ele>
        <time>2015-09-27T10:38:08Z</time>
      </trkpt>
      <trkpt lat="43.64344" lon="6.78982">
        <ele>169</ele>
        <time>2015-09-27T10:38:32Z</time>
      </trkpt>
      <trkpt lat="43.64343" lon="6.78973">
        <ele>170</ele>
        <time>2015-09-27T10:38:47Z</time>
      </trkpt>
      <trkpt lat="43.64335" lon="6.78972">
        <ele>159</ele>
        <time>2015-09-27T10:39:50Z</time>
      </trkpt>
      <trkpt lat="43.6433" lon="6.78964">
        <ele>164</ele>
        <time>2015-09-27T10:40:26Z</time>
      </trkpt>
      <trkpt lat="43.64333" lon="6.78951">
        <ele>165</ele>
        <time>2015-09-27T10:40:31Z</time>
      </trkpt>
      <trkpt lat="43.64338" lon="6.7894">
        <ele>162</ele>
        <time>2015-09-27T10:40:45Z</time>
      </trkpt>
      <trkpt lat="43.64342" lon="6.78938">
        <ele>161</ele>
        <time>2015-09-27T10:41:04Z</time>
      </trkpt>
      <trkpt lat="43.64349" lon="6.78941">
        <ele>150</ele>
        <time>2015-09-27T10:41:36Z</time>
      </trkpt>
      <trkpt lat="43.6436" lon="6.78938">
        <ele>153</ele>
        <time>2015-09-27T10:41:52Z</time>
      </trkpt>
      <trkpt lat="43.64369" lon="6.7894">
        <ele>161</ele>
        <time>2015-09-27T10:42:05Z</time>
      </trkpt>
      <trkpt lat="43.64377" lon="6.78934">
        <ele>164</ele>
        <time>2015-09-27T10:42:24Z</time>
      </trkpt>
      <trkpt lat="43.64384" lon="6.78942">
        <ele>174</ele>
        <time>2015-09-27T10:42:47Z</time>
      </trkpt>
      <trkpt lat="43.64385" lon="6.78945">
        <ele>181</ele>
        <time>2015-09-27T10:43:15Z</time>
      </trkpt>
      <trkpt lat="43.64387" lon="6.78943">
        <ele>157</ele>
        <time>2015-09-27T11:29:13Z</time>
      </trkpt>
      <trkpt lat="43.64383" lon="6.78936">
        <ele>162</ele>
        <time>2015-09-27T11:34:19Z</time>
      </trkpt>
      <trkpt lat="43.64386" lon="6.78934">
        <ele>159</ele>
        <time>2015-09-27T11:35:46Z</time>
      </trkpt>
      <trkpt lat="43.6439" lon="6.78931">
        <ele>159</ele>
        <time>2015-09-27T11:35:53Z</time>
      </trkpt>
      <trkpt lat="43.64399" lon="6.78923">
        <ele>162</ele>
        <time>2015-09-27T11:36:04Z</time>
      </trkpt>
      <trkpt lat="43.64407" lon="6.78923">
        <ele>165</ele>
        <time>2015-09-27T11:36:20Z</time>
      </trkpt>
      <trkpt lat="43.64415" lon="6.78926">
        <ele>157</ele>
        <time>2015-09-27T11:36:51Z</time>
      </trkpt>
      <trkpt lat="43.64418" lon="6.78922">
        <ele>160</ele>
        <time>2015-09-27T11:37:03Z</time>
      </trkpt>
      <trkpt lat="43.64433" lon="6.78905">
        <ele>159</ele>
        <time>2015-09-27T11:37:23Z</time>
      </trkpt>
      <trkpt lat="43.64441" lon="6.789">
        <ele>163</ele>
        <time>2015-09-27T11:37:30Z</time>
      </trkpt>
      <trkpt lat="43.64444" lon="6.78895">
        <ele>165</ele>
        <time>2015-09-27T11:37:34Z</time>
      </trkpt>
      <trkpt lat="43.64451" lon="6.78886">
        <ele>166</ele>
        <time>2015-09-27T11:37:40Z</time>
      </trkpt>
      <trkpt lat="43.64454" lon="6.78882">
        <ele>165</ele>
        <time>2015-09-27T11:37:44Z</time>
      </trkpt>
      <trkpt lat="43.64458" lon="6.78877">
        <ele>165</ele>
        <time>2015-09-27T11:37:50Z</time>
      </trkpt>
      <trkpt lat="43.6446" lon="6.78873">
        <ele>169</ele>
        <time>2015-09-27T11:38:02Z</time>
      </trkpt>
      <trkpt lat="43.64464" lon="6.78868">
        <ele>169</ele>
        <time>2015-09-27T11:38:05Z</time>
      </trkpt>
      <trkpt lat="43.64472" lon="6.7886">
        <ele>164</ele>
        <time>2015-09-27T11:38:17Z</time>
      </trkpt>
      <trkpt lat="43.64479" lon="6.78852">
        <ele>163</ele>
        <time>2015-09-27T11:38:32Z</time>
      </trkpt>
      <trkpt lat="43.64481" lon="6.78846">
        <ele>164</ele>
        <time>2015-09-27T11:38:37Z</time>
      </trkpt>
      <trkpt lat="43.64486" lon="6.78832">
        <ele>167</ele>
        <time>2015-09-27T11:39:19Z</time>
      </trkpt>
      <trkpt lat="43.64492" lon="6.78823">
        <ele>168</ele>
        <time>2015-09-27T11:39:31Z</time>
      </trkpt>
      <trkpt lat="43.64497" lon="6.78817">
        <ele>167</ele>
        <time>2015-09-27T11:39:38Z</time>
      </trkpt>
      <trkpt lat="43.64507" lon="6.78812">
        <ele>170</ele>
        <time>2015-09-27T11:39:57Z</time>
      </trkpt>
      <trkpt lat="43.64516" lon="6.78808">
        <ele>170</ele>
        <time>2015-09-27T11:40:16Z</time>
      </trkpt>
      <trkpt lat="43.64521" lon="6.78804">
        <ele>168</ele>
        <time>2015-09-27T11:40:25Z</time>
      </trkpt>
      <trkpt lat="43.64525" lon="6.788">
        <ele>167</ele>
        <time>2015-09-27T11:40:29Z</time>
      </trkpt>
      <trkpt lat="43.64529" lon="6.78796">
        <ele>165</ele>
        <time>2015-09-27T11:40:33Z</time>
      </trkpt>
      <trkpt lat="43.64532" lon="6.78792">
        <ele>165</ele>
        <time>2015-09-27T11:40:38Z</time>
      </trkpt>
      <trkpt lat="43.64544" lon="6.7879">
        <ele>163</ele>
        <time>2015-09-27T11:40:53Z</time>
      </trkpt>
      <trkpt lat="43.64554" lon="6.78793">
        <ele>157</ele>
        <time>2015-09-27T11:41:40Z</time>
      </trkpt>
      <trkpt lat="43.64557" lon="6.78787">
        <ele>160</ele>
        <time>2015-09-27T11:42:02Z</time>
      </trkpt>
      <trkpt lat="43.64559" lon="6.7878">
        <ele>162</ele>
        <time>2015-09-27T11:42:29Z</time>
      </trkpt>
      <trkpt lat="43.6456" lon="6.78768">
        <ele>155</ele>
        <time>2015-09-27T11:42:52Z</time>
      </trkpt>
      <trkpt lat="43.64564" lon="6.7877">
        <ele>164</ele>
        <time>2015-09-27T11:44:08Z</time>
      </trkpt>
      <trkpt lat="43.64563" lon="6.78761">
        <ele>165</ele>
        <time>2015-09-27T11:45:45Z</time>
      </trkpt>
      <trkpt lat="43.64569" lon="6.78756">
        <ele>176</ele>
        <time>2015-09-27T11:46:14Z</time>
      </trkpt>
      <trkpt lat="43.64573" lon="6.7875">
        <ele>176</ele>
        <time>2015-09-27T11:46:20Z</time>
      </trkpt>
      <trkpt lat="43.64584" lon="6.78736">
        <ele>168</ele>
        <time>2015-09-27T11:46:38Z</time>
      </trkpt>
      <trkpt lat="43.64588" lon="6.78733">
        <ele>168</ele>
        <time>2015-09-27T11:46:43Z</time>
      </trkpt>
      <trkpt lat="43.64597" lon="6.78725">
        <ele>165</ele>
        <time>2015-09-27T11:46:53Z</time>
      </trkpt>
      <trkpt lat="43.64601" lon="6.78722">
        <ele>166</ele>
        <time>2015-09-27T11:47:00Z</time>
      </trkpt>
      <trkpt lat="43.64606" lon="6.78714">
        <ele>165</ele>
        <time>2015-09-27T11:47:06Z</time>
      </trkpt>
      <trkpt lat="43.64627" lon="6.78702">
        <ele>173</ele>
        <time>2015-09-27T11:47:26Z</time>
      </trkpt>
      <trkpt lat="43.64636" lon="6.78698">
        <ele>172</ele>
        <time>2015-09-27T11:47:36Z</time>
      </trkpt>
      <trkpt lat="43.64649" lon="6.78691">
        <ele>172</ele>
        <time>2015-09-27T11:47:52Z</time>
      </trkpt>
      <trkpt lat="43.64654" lon="6.7869">
        <ele>171</ele>
        <time>2015-09-27T11:47:57Z</time>
      </trkpt>
      <trkpt lat="43.64659" lon="6.78685">
        <ele>170</ele>
        <time>2015-09-27T11:48:01Z</time>
      </trkpt>
      <trkpt lat="43.64665" lon="6.78681">
        <ele>170</ele>
        <time>2015-09-27T11:48:09Z</time>
      </trkpt>
      <trkpt lat="43.64679" lon="6.78672">
        <ele>169</ele>
        <time>2015-09-27T11:48:21Z</time>
      </trkpt>
      <trkpt lat="43.64686" lon="6.78669">
        <ele>171</ele>
        <time>2015-09-27T11:48:29Z</time>
      </trkpt>
      <trkpt lat="43.64693" lon="6.78659">
        <ele>171</ele>
        <time>2015-09-27T11:48:35Z</time>
      </trkpt>
      <trkpt lat="43.64702" lon="6.78647">
        <ele>169</ele>
        <time>2015-09-27T11:48:47Z</time>
      </trkpt>
      <trkpt lat="43.64707" lon="6.78645">
        <ele>168</ele>
        <time>2015-09-27T11:48:52Z</time>
      </trkpt>
      <trkpt lat="43.64719" lon="6.78623">
        <ele>167</ele>
        <time>2015-09-27T11:49:14Z</time>
      </trkpt>
      <trkpt lat="43.64724" lon="6.78615">
        <ele>167</ele>
        <time>2015-09-27T11:49:22Z</time>
      </trkpt>
      <trkpt lat="43.64735" lon="6.78603">
        <ele>166</ele>
        <time>2015-09-27T11:49:37Z</time>
      </trkpt>
      <trkpt lat="43.64743" lon="6.78587">
        <ele>174</ele>
        <time>2015-09-27T11:49:53Z</time>
      </trkpt>
      <trkpt lat="43.64756" lon="6.78581">
        <ele>191</ele>
        <time>2015-09-27T11:50:30Z</time>
      </trkpt>
      <trkpt lat="43.64761" lon="6.78569">
        <ele>179</ele>
        <time>2015-09-27T11:51:03Z</time>
      </trkpt>
      <trkpt lat="43.64768" lon="6.78531">
        <ele>169</ele>
        <time>2015-09-27T11:51:48Z</time>
      </trkpt>
      <trkpt lat="43.64771" lon="6.78519">
        <ele>169</ele>
        <time>2015-09-27T11:51:57Z</time>
      </trkpt>
      <trkpt lat="43.64779" lon="6.78494">
        <ele>172</ele>
        <time>2015-09-27T11:52:14Z</time>
      </trkpt>
      <trkpt lat="43.64776" lon="6.78493">
        <ele>161</ele>
        <time>2015-09-27T11:52:54Z</time>
      </trkpt>
      <trkpt lat="43.64783" lon="6.78481">
        <ele>161</ele>
        <time>2015-09-27T11:53:11Z</time>
      </trkpt>
      <trkpt lat="43.64798" lon="6.78464">
        <ele>168</ele>
        <time>2015-09-27T11:53:32Z</time>
      </trkpt>
      <trkpt lat="43.64806" lon="6.7847">
        <ele>170</ele>
        <time>2015-09-27T11:53:39Z</time>
      </trkpt>
      <trkpt lat="43.64817" lon="6.78474">
        <ele>170</ele>
        <time>2015-09-27T11:53:54Z</time>
      </trkpt>
      <trkpt lat="43.64814" lon="6.78478">
        <ele>171</ele>
        <time>2015-09-27T11:58:39Z</time>
      </trkpt>
      <trkpt lat="43.64814" lon="6.78477">
        <ele>170</ele>
        <time>2015-09-27T11:59:30Z</time>
      </trkpt>
      <trkpt lat="43.64806" lon="6.78472">
        <ele>170</ele>
        <time>2015-09-27T11:59:55Z</time>
      </trkpt>
      <trkpt lat="43.64812" lon="6.78462">
        <ele>170</ele>
        <time>2015-09-27T12:00:06Z</time>
      </trkpt>
      <trkpt lat="43.6482" lon="6.78452">
        <ele>171</ele>
        <time>2015-09-27T12:00:13Z</time>
      </trkpt>
      <trkpt lat="43.64828" lon="6.78446">
        <ele>172</ele>
        <time>2015-09-27T12:00:28Z</time>
      </trkpt>
      <trkpt lat="43.64848" lon="6.78448">
        <ele>169</ele>
        <time>2015-09-27T12:01:00Z</time>
      </trkpt>
      <trkpt lat="43.64858" lon="6.7845">
        <ele>170</ele>
        <time>2015-09-27T12:01:09Z</time>
      </trkpt>
      <trkpt lat="43.64877" lon="6.78454">
        <ele>168</ele>
        <time>2015-09-27T12:01:21Z</time>
      </trkpt>
      <trkpt lat="43.64886" lon="6.78448">
        <ele>167</ele>
        <time>2015-09-27T12:01:32Z</time>
      </trkpt>
      <trkpt lat="43.64896" lon="6.78449">
        <ele>165</ele>
        <time>2015-09-27T12:01:40Z</time>
      </trkpt>
      <trkpt lat="43.64925" lon="6.78453">
        <ele>170</ele>
        <time>2015-09-27T12:02:11Z</time>
      </trkpt>
      <trkpt lat="43.64934" lon="6.7846">
        <ele>168</ele>
        <time>2015-09-27T12:02:19Z</time>
      </trkpt>
      <trkpt lat="43.64944" lon="6.7846">
        <ele>172</ele>
        <time>2015-09-27T12:02:34Z</time>
      </trkpt>
      <trkpt lat="43.64951" lon="6.78469">
        <ele>176</ele>
        <time>2015-09-27T12:02:52Z</time>
      </trkpt>
      <trkpt lat="43.64961" lon="6.78473">
        <ele>175</ele>
        <time>2015-09-27T12:03:00Z</time>
      </trkpt>
      <trkpt lat="43.64968" lon="6.78484">
        <ele>172</ele>
        <time>2015-09-27T12:03:06Z</time>
      </trkpt>
      <trkpt lat="43.64984" lon="6.78501">
        <ele>171</ele>
        <time>2015-09-27T12:03:23Z</time>
      </trkpt>
      <trkpt lat="43.65003" lon="6.78524">
        <ele>174</ele>
        <time>2015-09-27T12:03:43Z</time>
      </trkpt>
      <trkpt lat="43.65014" lon="6.78528">
        <ele>174</ele>
        <time>2015-09-27T12:03:54Z</time>
      </trkpt>
      <trkpt lat="43.65019" lon="6.78525">
        <ele>173</ele>
        <time>2015-09-27T12:03:59Z</time>
      </trkpt>
      <trkpt lat="43.65024" lon="6.78524">
        <ele>173</ele>
        <time>2015-09-27T12:04:02Z</time>
      </trkpt>
      <trkpt lat="43.65036" lon="6.7852">
        <ele>173</ele>
        <time>2015-09-27T12:04:11Z</time>
      </trkpt>
      <trkpt lat="43.65041" lon="6.78524">
        <ele>173</ele>
        <time>2015-09-27T12:04:15Z</time>
      </trkpt>
      <trkpt lat="43.65044" lon="6.78528">
        <ele>174</ele>
        <time>2015-09-27T12:04:19Z</time>
      </trkpt>
      <trkpt lat="43.65049" lon="6.7853">
        <ele>175</ele>
        <time>2015-09-27T12:04:25Z</time>
      </trkpt>
      <trkpt lat="43.65054" lon="6.78527">
        <ele>176</ele>
        <time>2015-09-27T12:04:31Z</time>
      </trkpt>
      <trkpt lat="43.6506" lon="6.78527">
        <ele>178</ele>
        <time>2015-09-27T12:04:35Z</time>
      </trkpt>
      <trkpt lat="43.65078" lon="6.78534">
        <ele>173</ele>
        <time>2015-09-27T12:04:49Z</time>
      </trkpt>
      <trkpt lat="43.65088" lon="6.78533">
        <ele>173</ele>
        <time>2015-09-27T12:04:59Z</time>
      </trkpt>
      <trkpt lat="43.65097" lon="6.78537">
        <ele>173</ele>
        <time>2015-09-27T12:05:06Z</time>
      </trkpt>
      <trkpt lat="43.65106" lon="6.78533">
        <ele>172</ele>
        <time>2015-09-27T12:05:18Z</time>
      </trkpt>
      <trkpt lat="43.65124" lon="6.78525">
        <ele>176</ele>
        <time>2015-09-27T12:05:32Z</time>
      </trkpt>
      <trkpt lat="43.65131" lon="6.78516">
        <ele>176</ele>
        <time>2015-09-27T12:05:40Z</time>
      </trkpt>
      <trkpt lat="43.65138" lon="6.78508">
        <ele>177</ele>
        <time>2015-09-27T12:05:52Z</time>
      </trkpt>
      <trkpt lat="43.65154" lon="6.78492">
        <ele>173</ele>
        <time>2015-09-27T12:06:09Z</time>
      </trkpt>
      <trkpt lat="43.65161" lon="6.78484">
        <ele>175</ele>
        <time>2015-09-27T12:06:17Z</time>
      </trkpt>
      <trkpt lat="43.6517" lon="6.78479">
        <ele>175</ele>
        <time>2015-09-27T12:06:25Z</time>
      </trkpt>
      <trkpt lat="43.65192" lon="6.78455">
        <ele>171</ele>
        <time>2015-09-27T12:06:52Z</time>
      </trkpt>
      <trkpt lat="43.65201" lon="6.7845">
        <ele>172</ele>
        <time>2015-09-27T12:07:00Z</time>
      </trkpt>
      <trkpt lat="43.65217" lon="6.78435">
        <ele>177</ele>
        <time>2015-09-27T12:07:16Z</time>
      </trkpt>
      <trkpt lat="43.65238" lon="6.78421">
        <ele>178</ele>
        <time>2015-09-27T12:07:41Z</time>
      </trkpt>
      <trkpt lat="43.65254" lon="6.78411">
        <ele>182</ele>
        <time>2015-09-27T12:07:55Z</time>
      </trkpt>
      <trkpt lat="43.65259" lon="6.78402">
        <ele>183</ele>
        <time>2015-09-27T12:08:03Z</time>
      </trkpt>
      <trkpt lat="43.65258" lon="6.78396">
        <ele>184</ele>
        <time>2015-09-27T12:08:08Z</time>
      </trkpt>
      <trkpt lat="43.65261" lon="6.78384">
        <ele>186</ele>
        <time>2015-09-27T12:08:21Z</time>
      </trkpt>
      <trkpt lat="43.65266" lon="6.78373">
        <ele>185</ele>
        <time>2015-09-27T12:08:31Z</time>
      </trkpt>
      <trkpt lat="43.65273" lon="6.78364">
        <ele>184</ele>
        <time>2015-09-27T12:08:37Z</time>
      </trkpt>
      <trkpt lat="43.65275" lon="6.78351">
        <ele>188</ele>
        <time>2015-09-27T12:08:45Z</time>
      </trkpt>
      <trkpt lat="43.65278" lon="6.78338">
        <ele>188</ele>
        <time>2015-09-27T12:08:55Z</time>
      </trkpt>
      <trkpt lat="43.65279" lon="6.7833">
        <ele>188</ele>
        <time>2015-09-27T12:09:02Z</time>
      </trkpt>
      <trkpt lat="43.65282" lon="6.78325">
        <ele>188</ele>
        <time>2015-09-27T12:09:07Z</time>
      </trkpt>
      <trkpt lat="43.65287" lon="6.78314">
        <ele>190</ele>
        <time>2015-09-27T12:09:14Z</time>
      </trkpt>
      <trkpt lat="43.65291" lon="6.78311">
        <ele>191</ele>
        <time>2015-09-27T12:09:18Z</time>
      </trkpt>
      <trkpt lat="43.65292" lon="6.78304">
        <ele>192</ele>
        <time>2015-09-27T12:09:23Z</time>
      </trkpt>
      <trkpt lat="43.65295" lon="6.78298">
        <ele>193</ele>
        <time>2015-09-27T12:09:29Z</time>
      </trkpt>
      <trkpt lat="43.653" lon="6.78286">
        <ele>192</ele>
        <time>2015-09-27T12:09:38Z</time>
      </trkpt>
      <trkpt lat="43.65314" lon="6.78262">
        <ele>187</ele>
        <time>2015-09-27T12:09:56Z</time>
      </trkpt>
      <trkpt lat="43.6532" lon="6.78254">
        <ele>186</ele>
        <time>2015-09-27T12:10:05Z</time>
      </trkpt>
      <trkpt lat="43.65332" lon="6.78255">
        <ele>187</ele>
        <time>2015-09-27T12:10:31Z</time>
      </trkpt>
      <trkpt lat="43.65335" lon="6.7825">
        <ele>188</ele>
        <time>2015-09-27T12:10:35Z</time>
      </trkpt>
      <trkpt lat="43.65348" lon="6.78236">
        <ele>193</ele>
        <time>2015-09-27T12:10:47Z</time>
      </trkpt>
      <trkpt lat="43.65352" lon="6.78233">
        <ele>193</ele>
        <time>2015-09-27T12:10:51Z</time>
      </trkpt>
      <trkpt lat="43.65361" lon="6.78227">
        <ele>192</ele>
        <time>2015-09-27T12:10:59Z</time>
      </trkpt>
      <trkpt lat="43.65368" lon="6.78223">
        <ele>191</ele>
        <time>2015-09-27T12:11:05Z</time>
      </trkpt>
      <trkpt lat="43.65378" lon="6.7822">
        <ele>193</ele>
        <time>2015-09-27T12:11:19Z</time>
      </trkpt>
      <trkpt lat="43.6538" lon="6.78214">
        <ele>193</ele>
        <time>2015-09-27T12:11:25Z</time>
      </trkpt>
      <trkpt lat="43.65388" lon="6.78207">
        <ele>193</ele>
        <time>2015-09-27T12:11:31Z</time>
      </trkpt>
      <trkpt lat="43.65396" lon="6.782">
        <ele>192</ele>
        <time>2015-09-27T12:11:39Z</time>
      </trkpt>
      <trkpt lat="43.65399" lon="6.78193">
        <ele>192</ele>
        <time>2015-09-27T12:11:44Z</time>
      </trkpt>
      <trkpt lat="43.65426" lon="6.78155">
        <ele>201</ele>
        <time>2015-09-27T12:12:22Z</time>
      </trkpt>
      <trkpt lat="43.65429" lon="6.78148">
        <ele>200</ele>
        <time>2015-09-27T12:12:25Z</time>
      </trkpt>
      <trkpt lat="43.6543" lon="6.78133">
        <ele>197</ele>
        <time>2015-09-27T12:12:34Z</time>
      </trkpt>
      <trkpt lat="43.65434" lon="6.78128">
        <ele>197</ele>
        <time>2015-09-27T12:12:38Z</time>
      </trkpt>
      <trkpt lat="43.65439" lon="6.78117">
        <ele>196</ele>
        <time>2015-09-27T12:12:53Z</time>
      </trkpt>
      <trkpt lat="43.65443" lon="6.78106">
        <ele>198</ele>
        <time>2015-09-27T12:13:01Z</time>
      </trkpt>
      <trkpt lat="43.65457" lon="6.78087">
        <ele>200</ele>
        <time>2015-09-27T12:13:16Z</time>
      </trkpt>
      <trkpt lat="43.65465" lon="6.78079">
        <ele>202</ele>
        <time>2015-09-27T12:13:24Z</time>
      </trkpt>
      <trkpt lat="43.65477" lon="6.78059">
        <ele>202</ele>
        <time>2015-09-27T12:13:39Z</time>
      </trkpt>
      <trkpt lat="43.65488" lon="6.78037">
        <ele>204</ele>
        <time>2015-09-27T12:13:54Z</time>
      </trkpt>
      <trkpt lat="43.65482" lon="6.78028">
        <ele>202</ele>
        <time>2015-09-27T12:14:01Z</time>
      </trkpt>
      <trkpt lat="43.65476" lon="6.78017">
        <ele>197</ele>
        <time>2015-09-27T12:14:09Z</time>
      </trkpt>
      <trkpt lat="43.65475" lon="6.78007">
        <ele>195</ele>
        <time>2015-09-27T12:14:16Z</time>
      </trkpt>
      <trkpt lat="43.65476" lon="6.77998">
        <ele>194</ele>
        <time>2015-09-27T12:14:21Z</time>
      </trkpt>
      <trkpt lat="43.65489" lon="6.77982">
        <ele>196</ele>
        <time>2015-09-27T12:14:32Z</time>
      </trkpt>
      <trkpt lat="43.6549" lon="6.77976">
        <ele>196</ele>
        <time>2015-09-27T12:14:37Z</time>
      </trkpt>
      <trkpt lat="43.655" lon="6.77961">
        <ele>198</ele>
        <time>2015-09-27T12:14:47Z</time>
      </trkpt>
      <trkpt lat="43.655" lon="6.77945">
        <ele>194</ele>
        <time>2015-09-27T12:14:57Z</time>
      </trkpt>
      <trkpt lat="43.65499" lon="6.77939">
        <ele>193</ele>
        <time>2015-09-27T12:15:00Z</time>
      </trkpt>
      <trkpt lat="43.65504" lon="6.77918">
        <ele>190</ele>
        <time>2015-09-27T12:15:20Z</time>
      </trkpt>
      <trkpt lat="43.65505" lon="6.77909">
        <ele>195</ele>
        <time>2015-09-27T12:15:42Z</time>
      </trkpt>
      <trkpt lat="43.65507" lon="6.77904">
        <ele>195</ele>
        <time>2015-09-27T12:15:45Z</time>
      </trkpt>
      <trkpt lat="43.65503" lon="6.77892">
        <ele>192</ele>
        <time>2015-09-27T12:15:57Z</time>
      </trkpt>
      <trkpt lat="43.65501" lon="6.7788">
        <ele>190</ele>
        <time>2015-09-27T12:16:05Z</time>
      </trkpt>
      <trkpt lat="43.65509" lon="6.77863">
        <ele>190</ele>
        <time>2015-09-27T12:16:32Z</time>
      </trkpt>
      <trkpt lat="43.65515" lon="6.77844">
        <ele>195</ele>
        <time>2015-09-27T12:16:45Z</time>
      </trkpt>
      <trkpt lat="43.65516" lon="6.77837">
        <ele>194</ele>
        <time>2015-09-27T12:16:49Z</time>
      </trkpt>
      <trkpt lat="43.65519" lon="6.77831">
        <ele>192</ele>
        <time>2015-09-27T12:16:53Z</time>
      </trkpt>
      <trkpt lat="43.6552" lon="6.77825">
        <ele>191</ele>
        <time>2015-09-27T12:16:57Z</time>
      </trkpt>
      <trkpt lat="43.6552" lon="6.77812">
        <ele>191</ele>
        <time>2015-09-27T12:17:05Z</time>
      </trkpt>
      <trkpt lat="43.65524" lon="6.778">
        <ele>192</ele>
        <time>2015-09-27T12:17:11Z</time>
      </trkpt>
      <trkpt lat="43.6553" lon="6.7779">
        <ele>196</ele>
        <time>2015-09-27T12:17:19Z</time>
      </trkpt>
      <trkpt lat="43.65538" lon="6.77784">
        <ele>197</ele>
        <time>2015-09-27T12:17:28Z</time>
      </trkpt>
      <trkpt lat="43.65546" lon="6.77775">
        <ele>197</ele>
        <time>2015-09-27T12:17:36Z</time>
      </trkpt>
      <trkpt lat="43.65551" lon="6.7777">
        <ele>199</ele>
        <time>2015-09-27T12:17:41Z</time>
      </trkpt>
      <trkpt lat="43.65566" lon="6.77754">
        <ele>198</ele>
        <time>2015-09-27T12:17:58Z</time>
      </trkpt>
      <trkpt lat="43.65569" lon="6.77748">
        <ele>198</ele>
        <time>2015-09-27T12:18:02Z</time>
      </trkpt>
      <trkpt lat="43.6557" lon="6.77742">
        <ele>198</ele>
        <time>2015-09-27T12:18:15Z</time>
      </trkpt>
      <trkpt lat="43.65578" lon="6.77742">
        <ele>198</ele>
        <time>2015-09-27T12:18:23Z</time>
      </trkpt>
      <trkpt lat="43.65584" lon="6.77742">
        <ele>198</ele>
        <time>2015-09-27T12:18:26Z</time>
      </trkpt>
      <trkpt lat="43.6559" lon="6.77743">
        <ele>197</ele>
        <time>2015-09-27T12:18:30Z</time>
      </trkpt>
      <trkpt lat="43.65594" lon="6.77741">
        <ele>197</ele>
        <time>2015-09-27T12:18:34Z</time>
      </trkpt>
      <trkpt lat="43.656" lon="6.77741">
        <ele>197</ele>
        <time>2015-09-27T12:18:38Z</time>
      </trkpt>
      <trkpt lat="43.65605" lon="6.7774">
        <ele>197</ele>
        <time>2015-09-27T12:18:42Z</time>
      </trkpt>
      <trkpt lat="43.65619" lon="6.77734">
        <ele>196</ele>
        <time>2015-09-27T12:18:53Z</time>
      </trkpt>
      <trkpt lat="43.65627" lon="6.77725">
        <ele>193</ele>
        <time>2015-09-27T12:19:02Z</time>
      </trkpt>
      <trkpt lat="43.65646" lon="6.7771">
        <ele>191</ele>
        <time>2015-09-27T12:19:19Z</time>
      </trkpt>
      <trkpt lat="43.65656" lon="6.77705">
        <ele>192</ele>
        <time>2015-09-27T12:19:26Z</time>
      </trkpt>
      <trkpt lat="43.65666" lon="6.77704">
        <ele>190</ele>
        <time>2015-09-27T12:19:38Z</time>
      </trkpt>
      <trkpt lat="43.6567" lon="6.77706">
        <ele>190</ele>
        <time>2015-09-27T12:19:42Z</time>
      </trkpt>
      <trkpt lat="43.65676" lon="6.7771">
        <ele>189</ele>
        <time>2015-09-27T12:19:51Z</time>
      </trkpt>
      <trkpt lat="43.6568" lon="6.77713">
        <ele>189</ele>
        <time>2015-09-27T12:19:54Z</time>
      </trkpt>
      <trkpt lat="43.65684" lon="6.77714">
        <ele>188</ele>
        <time>2015-09-27T12:19:58Z</time>
      </trkpt>
      <trkpt lat="43.65698" lon="6.77716">
        <ele>191</ele>
        <time>2015-09-27T12:20:19Z</time>
      </trkpt>
      <trkpt lat="43.65709" lon="6.77714">
        <ele>190</ele>
        <time>2015-09-27T12:20:29Z</time>
      </trkpt>
      <trkpt lat="43.6571" lon="6.77721">
        <ele>188</ele>
        <time>2015-09-27T12:21:12Z</time>
      </trkpt>
      <trkpt lat="43.65719" lon="6.7772">
        <ele>188</ele>
        <time>2015-09-27T12:21:26Z</time>
      </trkpt>
      <trkpt lat="43.65728" lon="6.77723">
        <ele>187</ele>
        <time>2015-09-27T12:21:32Z</time>
      </trkpt>
      <trkpt lat="43.65735" lon="6.77727">
        <ele>188</ele>
        <time>2015-09-27T12:21:39Z</time>
      </trkpt>
      <trkpt lat="43.65739" lon="6.77732">
        <ele>188</ele>
        <time>2015-09-27T12:21:44Z</time>
      </trkpt>
      <trkpt lat="43.65746" lon="6.7773">
        <ele>189</ele>
        <time>2015-09-27T12:21:52Z</time>
      </trkpt>
      <trkpt lat="43.65752" lon="6.77728">
        <ele>190</ele>
        <time>2015-09-27T12:21:56Z</time>
      </trkpt>
      <trkpt lat="43.65762" lon="6.77726">
        <ele>191</ele>
        <time>2015-09-27T12:22:05Z</time>
      </trkpt>
      <trkpt lat="43.65767" lon="6.77725">
        <ele>192</ele>
        <time>2015-09-27T12:22:13Z</time>
      </trkpt>
      <trkpt lat="43.65771" lon="6.77721">
        <ele>192</ele>
        <time>2015-09-27T12:22:18Z</time>
      </trkpt>
      <trkpt lat="43.65782" lon="6.77719">
        <ele>190</ele>
        <time>2015-09-27T12:22:30Z</time>
      </trkpt>
      <trkpt lat="43.65787" lon="6.77718">
        <ele>190</ele>
        <time>2015-09-27T12:22:33Z</time>
      </trkpt>
      <trkpt lat="43.65798" lon="6.77716">
        <ele>192</ele>
        <time>2015-09-27T12:22:42Z</time>
      </trkpt>
      <trkpt lat="43.65812" lon="6.77719">
        <ele>188</ele>
        <time>2015-09-27T12:22:57Z</time>
      </trkpt>
      <trkpt lat="43.6582" lon="6.77717">
        <ele>187</ele>
        <time>2015-09-27T12:23:02Z</time>
      </trkpt>
      <trkpt lat="43.65825" lon="6.77715">
        <ele>190</ele>
        <time>2015-09-27T12:23:05Z</time>
      </trkpt>
      <trkpt lat="43.65837" lon="6.77694">
        <ele>193</ele>
        <time>2015-09-27T12:23:18Z</time>
      </trkpt>
      <trkpt lat="43.65842" lon="6.77688">
        <ele>193</ele>
        <time>2015-09-27T12:23:25Z</time>
      </trkpt>
      <trkpt lat="43.65849" lon="6.77687">
        <ele>193</ele>
        <time>2015-09-27T12:23:30Z</time>
      </trkpt>
      <trkpt lat="43.65854" lon="6.77683">
        <ele>192</ele>
        <time>2015-09-27T12:23:35Z</time>
      </trkpt>
      <trkpt lat="43.65865" lon="6.77682">
        <ele>191</ele>
        <time>2015-09-27T12:23:43Z</time>
      </trkpt>
      <trkpt lat="43.65875" lon="6.77679">
        <ele>192</ele>
        <time>2015-09-27T12:23:50Z</time>
      </trkpt>
      <trkpt lat="43.65884" lon="6.77678">
        <ele>198</ele>
        <time>2015-09-27T12:24:12Z</time>
      </trkpt>
      <trkpt lat="43.65892" lon="6.77678">
        <ele>198</ele>
        <time>2015-09-27T12:24:23Z</time>
      </trkpt>
      <trkpt lat="43.65902" lon="6.77679">
        <ele>196</ele>
        <time>2015-09-27T12:24:33Z</time>
      </trkpt>
      <trkpt lat="43.65909" lon="6.77676">
        <ele>195</ele>
        <time>2015-09-27T12:24:38Z</time>
      </trkpt>
      <trkpt lat="43.65918" lon="6.77672">
        <ele>196</ele>
        <time>2015-09-27T12:24:43Z</time>
      </trkpt>
      <trkpt lat="43.65926" lon="6.77664">
        <ele>197</ele>
        <time>2015-09-27T12:24:52Z</time>
      </trkpt>
      <trkpt lat="43.65931" lon="6.77657">
        <ele>197</ele>
        <time>2015-09-27T12:24:58Z</time>
      </trkpt>
      <trkpt lat="43.65942" lon="6.77654">
        <ele>192</ele>
        <time>2015-09-27T12:25:09Z</time>
      </trkpt>
      <trkpt lat="43.65951" lon="6.77651">
        <ele>191</ele>
        <time>2015-09-27T12:25:17Z</time>
      </trkpt>
      <trkpt lat="43.65966" lon="6.77643">
        <ele>197</ele>
        <time>2015-09-27T12:25:30Z</time>
      </trkpt>
      <trkpt lat="43.65973" lon="6.77638">
        <ele>196</ele>
        <time>2015-09-27T12:25:36Z</time>
      </trkpt>
      <trkpt lat="43.65977" lon="6.77634">
        <ele>196</ele>
        <time>2015-09-27T12:25:42Z</time>
      </trkpt>
      <trkpt lat="43.65981" lon="6.77635">
        <ele>193</ele>
        <time>2015-09-27T12:26:01Z</time>
      </trkpt>
      <trkpt lat="43.65984" lon="6.77645">
        <ele>194</ele>
        <time>2015-09-27T12:26:11Z</time>
      </trkpt>
      <trkpt lat="43.65986" lon="6.77652">
        <ele>193</ele>
        <time>2015-09-27T12:26:18Z</time>
      </trkpt>
      <trkpt lat="43.65989" lon="6.77654">
        <ele>191</ele>
        <time>2015-09-27T12:26:30Z</time>
      </trkpt>
      <trkpt lat="43.65992" lon="6.77657">
        <ele>192</ele>
        <time>2015-09-27T12:27:06Z</time>
      </trkpt>
      <trkpt lat="43.65998" lon="6.77669">
        <ele>195</ele>
        <time>2015-09-27T12:31:22Z</time>
      </trkpt>
      <trkpt lat="43.66" lon="6.7768">
        <ele>190</ele>
        <time>2015-09-27T12:32:01Z</time>
      </trkpt>
      <trkpt lat="43.65997" lon="6.77693">
        <ele>189</ele>
        <time>2015-09-27T12:32:09Z</time>
      </trkpt>
      <trkpt lat="43.65989" lon="6.777">
        <ele>187</ele>
        <time>2015-09-27T12:32:18Z</time>
      </trkpt>
      <trkpt lat="43.65981" lon="6.77704">
        <ele>186</ele>
        <time>2015-09-27T12:32:26Z</time>
      </trkpt>
      <trkpt lat="43.65972" lon="6.77707">
        <ele>187</ele>
        <time>2015-09-27T12:32:35Z</time>
      </trkpt>
      <trkpt lat="43.6595" lon="6.77733">
        <ele>197</ele>
        <time>2015-09-27T12:33:15Z</time>
      </trkpt>
      <trkpt lat="43.6594" lon="6.7775">
        <ele>204</ele>
        <time>2015-09-27T12:33:44Z</time>
      </trkpt>
      <trkpt lat="43.65942" lon="6.77762">
        <ele>206</ele>
        <time>2015-09-27T12:33:55Z</time>
      </trkpt>
      <trkpt lat="43.65936" lon="6.77773">
        <ele>210</ele>
        <time>2015-09-27T12:34:07Z</time>
      </trkpt>
      <trkpt lat="43.65929" lon="6.77781">
        <ele>212</ele>
        <time>2015-09-27T12:34:20Z</time>
      </trkpt>
      <trkpt lat="43.65927" lon="6.77807">
        <ele>210</ele>
        <time>2015-09-27T12:34:36Z</time>
      </trkpt>
      <trkpt lat="43.6591" lon="6.77837">
        <ele>215</ele>
        <time>2015-09-27T12:35:07Z</time>
      </trkpt>
      <trkpt lat="43.65903" lon="6.77845">
        <ele>216</ele>
        <time>2015-09-27T12:35:16Z</time>
      </trkpt>
      <trkpt lat="43.65899" lon="6.77857">
        <ele>214</ele>
        <time>2015-09-27T12:35:28Z</time>
      </trkpt>
      <trkpt lat="43.65888" lon="6.77878">
        <ele>215</ele>
        <time>2015-09-27T12:35:55Z</time>
      </trkpt>
      <trkpt lat="43.65879" lon="6.77882">
        <ele>212</ele>
        <time>2015-09-27T12:36:05Z</time>
      </trkpt>
      <trkpt lat="43.6587" lon="6.77889">
        <ele>213</ele>
        <time>2015-09-27T12:36:14Z</time>
      </trkpt>
      <trkpt lat="43.65861" lon="6.77893">
        <ele>215</ele>
        <time>2015-09-27T12:36:25Z</time>
      </trkpt>
      <trkpt lat="43.65859" lon="6.77901">
        <ele>215</ele>
        <time>2015-09-27T12:36:40Z</time>
      </trkpt>
      <trkpt lat="43.65868" lon="6.77902">
        <ele>219</ele>
        <time>2015-09-27T12:36:56Z</time>
      </trkpt>
      <trkpt lat="43.65868" lon="6.77916">
        <ele>221</ele>
        <time>2015-09-27T12:37:05Z</time>
      </trkpt>
      <trkpt lat="43.65861" lon="6.77927">
        <ele>223</ele>
        <time>2015-09-27T12:37:13Z</time>
      </trkpt>
      <trkpt lat="43.6585" lon="6.77926">
        <ele>220</ele>
        <time>2015-09-27T12:38:45Z</time>
      </trkpt>
      <trkpt lat="43.65841" lon="6.7793">
        <ele>217</ele>
        <time>2015-09-27T12:39:02Z</time>
      </trkpt>
      <trkpt lat="43.65832" lon="6.77931">
        <ele>217</ele>
        <time>2015-09-27T12:39:14Z</time>
      </trkpt>
      <trkpt lat="43.65824" lon="6.77938">
        <ele>224</ele>
        <time>2015-09-27T12:39:30Z</time>
      </trkpt>
      <trkpt lat="43.65807" lon="6.77968">
        <ele>236</ele>
        <time>2015-09-27T12:39:57Z</time>
      </trkpt>
      <trkpt lat="43.65805" lon="6.77975">
        <ele>226</ele>
        <time>2015-09-27T12:40:11Z</time>
      </trkpt>
      <trkpt lat="43.65789" lon="6.78011">
        <ele>241</ele>
        <time>2015-09-27T12:40:46Z</time>
      </trkpt>
      <trkpt lat="43.65783" lon="6.78015">
        <ele>243</ele>
        <time>2015-09-27T12:40:50Z</time>
      </trkpt>
      <trkpt lat="43.65776" lon="6.78015">
        <ele>243</ele>
        <time>2015-09-27T12:40:57Z</time>
      </trkpt>
      <trkpt lat="43.65767" lon="6.78004">
        <ele>238</ele>
        <time>2015-09-27T12:41:06Z</time>
      </trkpt>
      <trkpt lat="43.6576" lon="6.78">
        <ele>236</ele>
        <time>2015-09-27T12:41:12Z</time>
      </trkpt>
      <trkpt lat="43.65752" lon="6.77994">
        <ele>236</ele>
        <time>2015-09-27T12:41:19Z</time>
      </trkpt>
      <trkpt lat="43.65748" lon="6.77991">
        <ele>236</ele>
        <time>2015-09-27T12:41:23Z</time>
      </trkpt>
      <trkpt lat="43.65743" lon="6.77991">
        <ele>238</ele>
        <time>2015-09-27T12:41:30Z</time>
      </trkpt>
      <trkpt lat="43.65736" lon="6.77987">
        <ele>240</ele>
        <time>2015-09-27T12:42:00Z</time>
      </trkpt>
      <trkpt lat="43.65731" lon="6.77994">
        <ele>241</ele>
        <time>2015-09-27T12:42:33Z</time>
      </trkpt>
      <trkpt lat="43.65727" lon="6.77999">
        <ele>241</ele>
        <time>2015-09-27T12:42:39Z</time>
      </trkpt>
      <trkpt lat="43.65725" lon="6.78005">
        <ele>243</ele>
        <time>2015-09-27T12:42:45Z</time>
      </trkpt>
      <trkpt lat="43.65725" lon="6.78011">
        <ele>243</ele>
        <time>2015-09-27T12:42:49Z</time>
      </trkpt>
      <trkpt lat="43.6573" lon="6.78022">
        <ele>245</ele>
        <time>2015-09-27T12:42:58Z</time>
      </trkpt>
      <trkpt lat="43.65733" lon="6.78027">
        <ele>245</ele>
        <time>2015-09-27T12:43:03Z</time>
      </trkpt>
      <trkpt lat="43.65738" lon="6.78031">
        <ele>245</ele>
        <time>2015-09-27T12:43:09Z</time>
      </trkpt>
      <trkpt lat="43.65758" lon="6.78061">
        <ele>254</ele>
        <time>2015-09-27T12:43:40Z</time>
      </trkpt>
      <trkpt lat="43.6577" lon="6.78072">
        <ele>259</ele>
        <time>2015-09-27T12:43:56Z</time>
      </trkpt>
      <trkpt lat="43.65779" lon="6.78077">
        <ele>259</ele>
        <time>2015-09-27T12:44:04Z</time>
      </trkpt>
      <trkpt lat="43.65791" lon="6.78087">
        <ele>260</ele>
        <time>2015-09-27T12:44:19Z</time>
      </trkpt>
      <trkpt lat="43.65813" lon="6.78101">
        <ele>266</ele>
        <time>2015-09-27T12:44:48Z</time>
      </trkpt>
      <trkpt lat="43.65807" lon="6.78111">
        <ele>267</ele>
        <time>2015-09-27T12:44:59Z</time>
      </trkpt>
      <trkpt lat="43.65798" lon="6.78114">
        <ele>268</ele>
        <time>2015-09-27T12:45:08Z</time>
      </trkpt>
      <trkpt lat="43.65793" lon="6.78116">
        <ele>269</ele>
        <time>2015-09-27T12:45:14Z</time>
      </trkpt>
      <trkpt lat="43.65789" lon="6.7812">
        <ele>269</ele>
        <time>2015-09-27T12:45:20Z</time>
      </trkpt>
      <trkpt lat="43.65786" lon="6.78125">
        <ele>269</ele>
        <time>2015-09-27T12:45:27Z</time>
      </trkpt>
      <trkpt lat="43.6578" lon="6.78135">
        <ele>268</ele>
        <time>2015-09-27T12:45:37Z</time>
      </trkpt>
      <trkpt lat="43.65773" lon="6.78156">
        <ele>271</ele>
        <time>2015-09-27T12:45:57Z</time>
      </trkpt>
      <trkpt lat="43.6578" lon="6.78154">
        <ele>274</ele>
        <time>2015-09-27T12:46:09Z</time>
      </trkpt>
      <trkpt lat="43.65809" lon="6.7814">
        <ele>280</ele>
        <time>2015-09-27T12:46:40Z</time>
      </trkpt>
      <trkpt lat="43.65814" lon="6.78139">
        <ele>282</ele>
        <time>2015-09-27T12:46:45Z</time>
      </trkpt>
      <trkpt lat="43.65816" lon="6.78145">
        <ele>283</ele>
        <time>2015-09-27T12:46:51Z</time>
      </trkpt>
      <trkpt lat="43.65814" lon="6.7815">
        <ele>282</ele>
        <time>2015-09-27T12:46:57Z</time>
      </trkpt>
      <trkpt lat="43.65808" lon="6.78161">
        <ele>282</ele>
        <time>2015-09-27T12:47:07Z</time>
      </trkpt>
      <trkpt lat="43.65798" lon="6.78174">
        <ele>283</ele>
        <time>2015-09-27T12:47:20Z</time>
      </trkpt>
      <trkpt lat="43.65795" lon="6.7818">
        <ele>283</ele>
        <time>2015-09-27T12:47:25Z</time>
      </trkpt>
      <trkpt lat="43.65793" lon="6.78186">
        <ele>284</ele>
        <time>2015-09-27T12:47:30Z</time>
      </trkpt>
      <trkpt lat="43.65791" lon="6.78194">
        <ele>284</ele>
        <time>2015-09-27T12:47:37Z</time>
      </trkpt>
      <trkpt lat="43.65787" lon="6.78199">
        <ele>285</ele>
        <time>2015-09-27T12:47:41Z</time>
      </trkpt>
      <trkpt lat="43.65781" lon="6.78208">
        <ele>285</ele>
        <time>2015-09-27T12:47:50Z</time>
      </trkpt>
      <trkpt lat="43.65781" lon="6.78215">
        <ele>286</ele>
        <time>2015-09-27T12:47:57Z</time>
      </trkpt>
      <trkpt lat="43.65775" lon="6.78228">
        <ele>291</ele>
        <time>2015-09-27T12:48:19Z</time>
      </trkpt>
      <trkpt lat="43.65774" lon="6.78235">
        <ele>293</ele>
        <time>2015-09-27T12:48:27Z</time>
      </trkpt>
      <trkpt lat="43.65774" lon="6.78242">
        <ele>293</ele>
        <time>2015-09-27T12:48:33Z</time>
      </trkpt>
      <trkpt lat="43.65768" lon="6.78256">
        <ele>295</ele>
        <time>2015-09-27T12:48:47Z</time>
      </trkpt>
      <trkpt lat="43.65769" lon="6.78273">
        <ele>301</ele>
        <time>2015-09-27T12:49:13Z</time>
      </trkpt>
      <trkpt lat="43.65768" lon="6.78287">
        <ele>301</ele>
        <time>2015-09-27T12:49:27Z</time>
      </trkpt>
      <trkpt lat="43.65765" lon="6.78299">
        <ele>299</ele>
        <time>2015-09-27T12:49:39Z</time>
      </trkpt>
      <trkpt lat="43.65764" lon="6.78305">
        <ele>299</ele>
        <time>2015-09-27T12:49:47Z</time>
      </trkpt>
      <trkpt lat="43.65764" lon="6.78312">
        <ele>301</ele>
        <time>2015-09-27T12:49:54Z</time>
      </trkpt>
      <trkpt lat="43.65761" lon="6.78315">
        <ele>303</ele>
        <time>2015-09-27T12:51:00Z</time>
      </trkpt>
      <trkpt lat="43.6576" lon="6.78326">
        <ele>303</ele>
        <time>2015-09-27T12:54:04Z</time>
      </trkpt>
      <trkpt lat="43.65754" lon="6.78336">
        <ele>303</ele>
        <time>2015-09-27T12:54:15Z</time>
      </trkpt>
      <trkpt lat="43.65743" lon="6.78348">
        <ele>307</ele>
        <time>2015-09-27T12:54:37Z</time>
      </trkpt>
      <trkpt lat="43.65738" lon="6.78365">
        <ele>312</ele>
        <time>2015-09-27T12:54:55Z</time>
      </trkpt>
      <trkpt lat="43.65735" lon="6.78374">
        <ele>311</ele>
        <time>2015-09-27T12:55:03Z</time>
      </trkpt>
      <trkpt lat="43.65732" lon="6.78383">
        <ele>311</ele>
        <time>2015-09-27T12:55:10Z</time>
      </trkpt>
      <trkpt lat="43.65728" lon="6.78388">
        <ele>311</ele>
        <time>2015-09-27T12:55:15Z</time>
      </trkpt>
      <trkpt lat="43.65726" lon="6.78394">
        <ele>311</ele>
        <time>2015-09-27T12:55:19Z</time>
      </trkpt>
      <trkpt lat="43.65718" lon="6.78411">
        <ele>318</ele>
        <time>2015-09-27T12:55:35Z</time>
      </trkpt>
      <trkpt lat="43.65716" lon="6.78417">
        <ele>318</ele>
        <time>2015-09-27T12:55:40Z</time>
      </trkpt>
      <trkpt lat="43.65711" lon="6.78429">
        <ele>321</ele>
        <time>2015-09-27T12:55:53Z</time>
      </trkpt>
      <trkpt lat="43.65708" lon="6.78435">
        <ele>321</ele>
        <time>2015-09-27T12:55:58Z</time>
      </trkpt>
      <trkpt lat="43.65706" lon="6.78441">
        <ele>321</ele>
        <time>2015-09-27T12:56:03Z</time>
      </trkpt>
      <trkpt lat="43.65703" lon="6.78446">
        <ele>322</ele>
        <time>2015-09-27T12:56:07Z</time>
      </trkpt>
      <trkpt lat="43.65701" lon="6.78451">
        <ele>323</ele>
        <time>2015-09-27T12:56:12Z</time>
      </trkpt>
      <trkpt lat="43.65694" lon="6.78461">
        <ele>321</ele>
        <time>2015-09-27T12:56:22Z</time>
      </trkpt>
      <trkpt lat="43.65693" lon="6.78468">
        <ele>321</ele>
        <time>2015-09-27T12:56:28Z</time>
      </trkpt>
      <trkpt lat="43.65686" lon="6.78482">
        <ele>320</ele>
        <time>2015-09-27T12:56:39Z</time>
      </trkpt>
      <trkpt lat="43.65675" lon="6.78499">
        <ele>324</ele>
        <time>2015-09-27T12:57:09Z</time>
      </trkpt>
      <trkpt lat="43.65664" lon="6.78522">
        <ele>326</ele>
        <time>2015-09-27T12:57:33Z</time>
      </trkpt>
      <trkpt lat="43.65661" lon="6.78529">
        <ele>329</ele>
        <time>2015-09-27T12:57:40Z</time>
      </trkpt>
      <trkpt lat="43.65657" lon="6.78533">
        <ele>328</ele>
        <time>2015-09-27T12:57:46Z</time>
      </trkpt>
      <trkpt lat="43.65651" lon="6.78543">
        <ele>332</ele>
        <time>2015-09-27T12:57:56Z</time>
      </trkpt>
      <trkpt lat="43.65647" lon="6.78549">
        <ele>332</ele>
        <time>2015-09-27T12:58:02Z</time>
      </trkpt>
      <trkpt lat="43.65645" lon="6.78555">
        <ele>332</ele>
        <time>2015-09-27T12:58:07Z</time>
      </trkpt>
      <trkpt lat="43.65636" lon="6.7858">
        <ele>337</ele>
        <time>2015-09-27T12:58:38Z</time>
      </trkpt>
      <trkpt lat="43.65632" lon="6.78593">
        <ele>340</ele>
        <time>2015-09-27T12:58:52Z</time>
      </trkpt>
      <trkpt lat="43.65618" lon="6.78615">
        <ele>347</ele>
        <time>2015-09-27T12:59:26Z</time>
      </trkpt>
      <trkpt lat="43.65607" lon="6.78627">
        <ele>346</ele>
        <time>2015-09-27T12:59:43Z</time>
      </trkpt>
      <trkpt lat="43.65599" lon="6.78633">
        <ele>345</ele>
        <time>2015-09-27T12:59:54Z</time>
      </trkpt>
      <trkpt lat="43.65595" lon="6.78637">
        <ele>345</ele>
        <time>2015-09-27T13:00:03Z</time>
      </trkpt>
      <trkpt lat="43.65588" lon="6.78644">
        <ele>346</ele>
        <time>2015-09-27T13:00:12Z</time>
      </trkpt>
      <trkpt lat="43.65585" lon="6.78649">
        <ele>346</ele>
        <time>2015-09-27T13:00:18Z</time>
      </trkpt>
      <trkpt lat="43.65579" lon="6.78658">
        <ele>351</ele>
        <time>2015-09-27T13:00:33Z</time>
      </trkpt>
      <trkpt lat="43.65575" lon="6.78664">
        <ele>349</ele>
        <time>2015-09-27T13:00:52Z</time>
      </trkpt>
      <trkpt lat="43.65574" lon="6.78669">
        <ele>350</ele>
        <time>2015-09-27T13:01:33Z</time>
      </trkpt>
      <trkpt lat="43.65569" lon="6.78672">
        <ele>351</ele>
        <time>2015-09-27T13:01:40Z</time>
      </trkpt>
      <trkpt lat="43.65558" lon="6.78697">
        <ele>360</ele>
        <time>2015-09-27T13:02:16Z</time>
      </trkpt>
      <trkpt lat="43.65552" lon="6.78704">
        <ele>366</ele>
        <time>2015-09-27T13:02:30Z</time>
      </trkpt>
      <trkpt lat="43.65548" lon="6.78712">
        <ele>366</ele>
        <time>2015-09-27T13:02:44Z</time>
      </trkpt>
      <trkpt lat="43.65545" lon="6.78715">
        <ele>369</ele>
        <time>2015-09-27T13:02:54Z</time>
      </trkpt>
      <trkpt lat="43.65541" lon="6.78721">
        <ele>368</ele>
        <time>2015-09-27T13:03:08Z</time>
      </trkpt>
      <trkpt lat="43.65534" lon="6.78729">
        <ele>368</ele>
        <time>2015-09-27T13:03:22Z</time>
      </trkpt>
      <trkpt lat="43.65531" lon="6.78733">
        <ele>369</ele>
        <time>2015-09-27T13:03:31Z</time>
      </trkpt>
      <trkpt lat="43.65529" lon="6.78738">
        <ele>367</ele>
        <time>2015-09-27T13:04:32Z</time>
      </trkpt>
      <trkpt lat="43.65525" lon="6.78744">
        <ele>368</ele>
        <time>2015-09-27T13:04:43Z</time>
      </trkpt>
      <trkpt lat="43.6552" lon="6.78749">
        <ele>369</ele>
        <time>2015-09-27T13:04:50Z</time>
      </trkpt>
      <trkpt lat="43.65509" lon="6.78761">
        <ele>369</ele>
        <time>2015-09-27T13:05:07Z</time>
      </trkpt>
      <trkpt lat="43.65486" lon="6.78785">
        <ele>376</ele>
        <time>2015-09-27T13:05:47Z</time>
      </trkpt>
      <trkpt lat="43.65484" lon="6.78788">
        <ele>378</ele>
        <time>2015-09-27T13:05:55Z</time>
      </trkpt>
      <trkpt lat="43.65488" lon="6.78789">
        <ele>381</ele>
        <time>2015-09-27T13:07:21Z</time>
      </trkpt>
      <trkpt lat="43.6549" lon="6.78787">
        <ele>381</ele>
        <time>2015-09-27T13:07:27Z</time>
      </trkpt>
      <trkpt lat="43.65498" lon="6.7878">
        <ele>384</ele>
        <time>2015-09-27T13:07:37Z</time>
      </trkpt>
      <trkpt lat="43.65499" lon="6.78789">
        <ele>384</ele>
        <time>2015-09-27T13:07:48Z</time>
      </trkpt>
      <trkpt lat="43.65496" lon="6.78794">
        <ele>383</ele>
        <time>2015-09-27T13:07:55Z</time>
      </trkpt>
      <trkpt lat="43.65487" lon="6.78806">
        <ele>383</ele>
        <time>2015-09-27T13:08:11Z</time>
      </trkpt>
      <trkpt lat="43.65484" lon="6.7881">
        <ele>383</ele>
        <time>2015-09-27T13:08:17Z</time>
      </trkpt>
      <trkpt lat="43.65469" lon="6.78823">
        <ele>390</ele>
        <time>2015-09-27T13:08:54Z</time>
      </trkpt>
      <trkpt lat="43.65465" lon="6.78825">
        <ele>391</ele>
        <time>2015-09-27T13:09:02Z</time>
      </trkpt>
      <trkpt lat="43.6546" lon="6.78828">
        <ele>391</ele>
        <time>2015-09-27T13:09:09Z</time>
      </trkpt>
      <trkpt lat="43.65446" lon="6.78839">
        <ele>396</ele>
        <time>2015-09-27T13:09:36Z</time>
      </trkpt>
      <trkpt lat="43.65442" lon="6.78841">
        <ele>396</ele>
        <time>2015-09-27T13:09:44Z</time>
      </trkpt>
      <trkpt lat="43.65439" lon="6.78842">
        <ele>395</ele>
        <time>2015-09-27T13:10:23Z</time>
      </trkpt>
      <trkpt lat="43.65435" lon="6.7884">
        <ele>395</ele>
        <time>2015-09-27T13:10:52Z</time>
      </trkpt>
      <trkpt lat="43.65433" lon="6.78842">
        <ele>396</ele>
        <time>2015-09-27T13:11:49Z</time>
      </trkpt>
      <trkpt lat="43.65414" lon="6.78853">
        <ele>403</ele>
        <time>2015-09-27T13:12:21Z</time>
      </trkpt>
      <trkpt lat="43.65404" lon="6.78855">
        <ele>403</ele>
        <time>2015-09-27T13:12:31Z</time>
      </trkpt>
      <trkpt lat="43.65401" lon="6.7886">
        <ele>403</ele>
        <time>2015-09-27T13:12:47Z</time>
      </trkpt>
      <trkpt lat="43.65397" lon="6.78865">
        <ele>403</ele>
        <time>2015-09-27T13:12:53Z</time>
      </trkpt>
      <trkpt lat="43.65372" lon="6.78886">
        <ele>412</ele>
        <time>2015-09-27T13:13:27Z</time>
      </trkpt>
      <trkpt lat="43.65363" lon="6.78893">
        <ele>411</ele>
        <time>2015-09-27T13:13:38Z</time>
      </trkpt>
      <trkpt lat="43.65355" lon="6.78901">
        <ele>411</ele>
        <time>2015-09-27T13:13:49Z</time>
      </trkpt>
      <trkpt lat="43.65346" lon="6.78912">
        <ele>413</ele>
        <time>2015-09-27T13:14:18Z</time>
      </trkpt>
      <trkpt lat="43.65342" lon="6.78916">
        <ele>413</ele>
        <time>2015-09-27T13:14:25Z</time>
      </trkpt>
      <trkpt lat="43.65339" lon="6.78921">
        <ele>413</ele>
        <time>2015-09-27T13:14:30Z</time>
      </trkpt>
      <trkpt lat="43.65337" lon="6.78928">
        <ele>415</ele>
        <time>2015-09-27T13:14:44Z</time>
      </trkpt>
      <trkpt lat="43.65334" lon="6.78936">
        <ele>416</ele>
        <time>2015-09-27T13:14:50Z</time>
      </trkpt>
      <trkpt lat="43.65326" lon="6.78948">
        <ele>414</ele>
        <time>2015-09-27T13:15:03Z</time>
      </trkpt>
      <trkpt lat="43.65323" lon="6.78953">
        <ele>415</ele>
        <time>2015-09-27T13:15:08Z</time>
      </trkpt>
      <trkpt lat="43.65319" lon="6.78957">
        <ele>415</ele>
        <time>2015-09-27T13:15:12Z</time>
      </trkpt>
      <trkpt lat="43.65316" lon="6.78962">
        <ele>416</ele>
        <time>2015-09-27T13:15:16Z</time>
      </trkpt>
      <trkpt lat="43.65309" lon="6.78966">
        <ele>412</ele>
        <time>2015-09-27T13:15:33Z</time>
      </trkpt>
      <trkpt lat="43.653" lon="6.78972">
        <ele>419</ele>
        <time>2015-09-27T13:15:54Z</time>
      </trkpt>
      <trkpt lat="43.65298" lon="6.78981">
        <ele>420</ele>
        <time>2015-09-27T13:16:06Z</time>
      </trkpt>
      <trkpt lat="43.65294" lon="6.78986">
        <ele>421</ele>
        <time>2015-09-27T13:16:11Z</time>
      </trkpt>
      <trkpt lat="43.65291" lon="6.78992">
        <ele>421</ele>
        <time>2015-09-27T13:16:18Z</time>
      </trkpt>
      <trkpt lat="43.65289" lon="6.78998">
        <ele>420</ele>
        <time>2015-09-27T13:16:24Z</time>
      </trkpt>
      <trkpt lat="43.65285" lon="6.79002">
        <ele>421</ele>
        <time>2015-09-27T13:16:30Z</time>
      </trkpt>
      <trkpt lat="43.65272" lon="6.79014">
        <ele>424</ele>
        <time>2015-09-27T13:16:51Z</time>
      </trkpt>
      <trkpt lat="43.65268" lon="6.79017">
        <ele>424</ele>
        <time>2015-09-27T13:16:56Z</time>
      </trkpt>
      <trkpt lat="43.65259" lon="6.79023">
        <ele>424</ele>
        <time>2015-09-27T13:17:09Z</time>
      </trkpt>
      <trkpt lat="43.65246" lon="6.7903">
        <ele>430</ele>
        <time>2015-09-27T13:17:29Z</time>
      </trkpt>
      <trkpt lat="43.65241" lon="6.79032">
        <ele>430</ele>
        <time>2015-09-27T13:17:34Z</time>
      </trkpt>
      <trkpt lat="43.65226" lon="6.79042">
        <ele>436</ele>
        <time>2015-09-27T13:18:00Z</time>
      </trkpt>
      <trkpt lat="43.65221" lon="6.79042">
        <ele>436</ele>
        <time>2015-09-27T13:18:04Z</time>
      </trkpt>
      <trkpt lat="43.65212" lon="6.79041">
        <ele>438</ele>
        <time>2015-09-27T13:18:22Z</time>
      </trkpt>
      <trkpt lat="43.65207" lon="6.7904">
        <ele>438</ele>
        <time>2015-09-27T13:18:28Z</time>
      </trkpt>
      <trkpt lat="43.65202" lon="6.79041">
        <ele>440</ele>
        <time>2015-09-27T13:18:37Z</time>
      </trkpt>
      <trkpt lat="43.65197" lon="6.79045">
        <ele>442</ele>
        <time>2015-09-27T13:18:50Z</time>
      </trkpt>
      <trkpt lat="43.65193" lon="6.7905">
        <ele>443</ele>
        <time>2015-09-27T13:18:56Z</time>
      </trkpt>
      <trkpt lat="43.6518" lon="6.79058">
        <ele>447</ele>
        <time>2015-09-27T13:19:17Z</time>
      </trkpt>
      <trkpt lat="43.65175" lon="6.7906">
        <ele>446</ele>
        <time>2015-09-27T13:19:23Z</time>
      </trkpt>
      <trkpt lat="43.65163" lon="6.79064">
        <ele>448</ele>
        <time>2015-09-27T13:20:28Z</time>
      </trkpt>
      <trkpt lat="43.65157" lon="6.79068">
        <ele>454</ele>
        <time>2015-09-27T13:21:53Z</time>
      </trkpt>
      <trkpt lat="43.65152" lon="6.79072">
        <ele>452</ele>
        <time>2015-09-27T13:21:58Z</time>
      </trkpt>
      <trkpt lat="43.65148" lon="6.79077">
        <ele>452</ele>
        <time>2015-09-27T13:22:04Z</time>
      </trkpt>
      <trkpt lat="43.65144" lon="6.7908">
        <ele>453</ele>
        <time>2015-09-27T13:22:11Z</time>
      </trkpt>
      <trkpt lat="43.65139" lon="6.79082">
        <ele>453</ele>
        <time>2015-09-27T13:22:17Z</time>
      </trkpt>
      <trkpt lat="43.65127" lon="6.79096">
        <ele>453</ele>
        <time>2015-09-27T13:22:32Z</time>
      </trkpt>
      <trkpt lat="43.65122" lon="6.79097">
        <ele>453</ele>
        <time>2015-09-27T13:22:38Z</time>
      </trkpt>
      <trkpt lat="43.65117" lon="6.791">
        <ele>453</ele>
        <time>2015-09-27T13:22:42Z</time>
      </trkpt>
      <trkpt lat="43.65082" lon="6.79109">
        <ele>463</ele>
        <time>2015-09-27T13:23:14Z</time>
      </trkpt>
      <trkpt lat="43.65072" lon="6.79112">
        <ele>465</ele>
        <time>2015-09-27T13:23:23Z</time>
      </trkpt>
      <trkpt lat="43.65062" lon="6.79111">
        <ele>464</ele>
        <time>2015-09-27T13:23:32Z</time>
      </trkpt>
      <trkpt lat="43.65058" lon="6.7911">
        <ele>464</ele>
        <time>2015-09-27T13:23:37Z</time>
      </trkpt>
      <trkpt lat="43.6504" lon="6.79108">
        <ele>472</ele>
        <time>2015-09-27T13:24:08Z</time>
      </trkpt>
      <trkpt lat="43.65035" lon="6.79109">
        <ele>471</ele>
        <time>2015-09-27T13:24:14Z</time>
      </trkpt>
      <trkpt lat="43.65023" lon="6.79124">
        <ele>472</ele>
        <time>2015-09-27T13:24:31Z</time>
      </trkpt>
      <trkpt lat="43.65019" lon="6.79126">
        <ele>472</ele>
        <time>2015-09-27T13:24:36Z</time>
      </trkpt>
      <trkpt lat="43.65009" lon="6.79139">
        <ele>469</ele>
        <time>2015-09-27T13:24:49Z</time>
      </trkpt>
      <trkpt lat="43.65001" lon="6.79149">
        <ele>472</ele>
        <time>2015-09-27T13:25:00Z</time>
      </trkpt>
      <trkpt lat="43.64993" lon="6.79161">
        <ele>473</ele>
        <time>2015-09-27T13:25:10Z</time>
      </trkpt>
      <trkpt lat="43.6499" lon="6.79166">
        <ele>473</ele>
        <time>2015-09-27T13:25:14Z</time>
      </trkpt>
      <trkpt lat="43.64987" lon="6.79175">
        <ele>473</ele>
        <time>2015-09-27T13:25:20Z</time>
      </trkpt>
      <trkpt lat="43.64985" lon="6.7918">
        <ele>475</ele>
        <time>2015-09-27T13:25:24Z</time>
      </trkpt>
      <trkpt lat="43.64969" lon="6.79187">
        <ele>482</ele>
        <time>2015-09-27T13:25:41Z</time>
      </trkpt>
      <trkpt lat="43.64965" lon="6.79203">
        <ele>483</ele>
        <time>2015-09-27T13:26:02Z</time>
      </trkpt>
      <trkpt lat="43.64964" lon="6.79208">
        <ele>482</ele>
        <time>2015-09-27T13:26:15Z</time>
      </trkpt>
      <trkpt lat="43.64961" lon="6.7921">
        <ele>481</ele>
        <time>2015-09-27T13:26:23Z</time>
      </trkpt>
      <trkpt lat="43.64964" lon="6.79216">
        <ele>480</ele>
        <time>2015-09-27T13:26:30Z</time>
      </trkpt>
      <trkpt lat="43.64964" lon="6.79231">
        <ele>483</ele>
        <time>2015-09-27T13:26:59Z</time>
      </trkpt>
      <trkpt lat="43.64959" lon="6.79249">
        <ele>486</ele>
        <time>2015-09-27T13:27:26Z</time>
      </trkpt>
      <trkpt lat="43.64953" lon="6.79253">
        <ele>494</ele>
        <time>2015-09-27T13:27:38Z</time>
      </trkpt>
      <trkpt lat="43.64957" lon="6.79261">
        <ele>503</ele>
        <time>2015-09-27T13:27:46Z</time>
      </trkpt>
      <trkpt lat="43.64967" lon="6.79266">
        <ele>502</ele>
        <time>2015-09-27T13:27:54Z</time>
      </trkpt>
      <trkpt lat="43.64972" lon="6.79267">
        <ele>501</ele>
        <time>2015-09-27T13:27:57Z</time>
      </trkpt>
      <trkpt lat="43.64975" lon="6.79272">
        <ele>495</ele>
        <time>2015-09-27T13:28:05Z</time>
      </trkpt>
      <trkpt lat="43.64976" lon="6.79276">
        <ele>490</ele>
        <time>2015-09-27T13:28:22Z</time>
      </trkpt>
      <trkpt lat="43.64983" lon="6.79286">
        <ele>480</ele>
        <time>2015-09-27T13:28:57Z</time>
      </trkpt>
      <trkpt lat="43.64979" lon="6.7929">
        <ele>478</ele>
        <time>2015-09-27T13:30:04Z</time>
      </trkpt>
      <trkpt lat="43.6497" lon="6.79297">
        <ele>478</ele>
        <time>2015-09-27T13:30:11Z</time>
      </trkpt>
      <trkpt lat="43.64956" lon="6.79311">
        <ele>484</ele>
        <time>2015-09-27T13:30:34Z</time>
      </trkpt>
      <trkpt lat="43.6495" lon="6.79317">
        <ele>483</ele>
        <time>2015-09-27T13:30:50Z</time>
      </trkpt>
      <trkpt lat="43.64948" lon="6.79318">
        <ele>478</ele>
        <time>2015-09-27T13:33:39Z</time>
      </trkpt>
      <trkpt lat="43.64945" lon="6.7931">
        <ele>481</ele>
        <time>2015-09-27T13:34:09Z</time>
      </trkpt>
    </trkseg>
  </trk>
</gpx>